<?xml version="1.0" encoding="UTF-8" standalone="no" ?>
<gpx xmlns="http://www.topografix.com/GPX/1/1" xmlns:xsi="http://www.w3.org/2001/XMLSchema-instance" xsi:schemaLocation="http://www.topografix.com/GPX/1/1 http://www.topografix.com/GPX/1/1/gpx.xsd" version="1.1" creator="VisuGPX - https://www.visugpx.com">
  <metadata>
    <name>Autour de la voie des Mercureaux</name>
    <desc><![CDATA[Randonnée facile.]]></desc>
  </metadata>
  <trk>
    <name><![CDATA[TracA- actuel- 29 FEV 2012 14-03-MNT]]></name>
    <trkseg>
      <trkpt lat="47.21939" lon="6.04969">
        <ele>470.807434</ele>
        <time>2012-02-29T13:03:40Z</time>
      </trkpt>
      <trkpt lat="47.21938" lon="6.04964">
        <ele>470.253052</ele>
        <time>2012-02-29T13:03:43Z</time>
      </trkpt>
      <trkpt lat="47.21937" lon="6.04962">
        <ele>470.093262</ele>
        <time>2012-02-29T13:03:44Z</time>
      </trkpt>
      <trkpt lat="47.21936" lon="6.04961">
        <ele>469.974091</ele>
        <time>2012-02-29T13:03:45Z</time>
      </trkpt>
      <trkpt lat="47.21936" lon="6.04959">
        <ele>469.80899</ele>
        <time>2012-02-29T13:03:46Z</time>
      </trkpt>
      <trkpt lat="47.2193" lon="6.04944">
        <ele>468.894379</ele>
        <time>2012-02-29T13:03:56Z</time>
      </trkpt>
      <trkpt lat="47.21929" lon="6.04943">
        <ele>468.804199</ele>
        <time>2012-02-29T13:03:57Z</time>
      </trkpt>
      <trkpt lat="47.21929" lon="6.04941">
        <ele>468.509949</ele>
        <time>2012-02-29T13:03:58Z</time>
      </trkpt>
      <trkpt lat="47.21924" lon="6.04917">
        <ele>466.494995</ele>
        <time>2012-02-29T13:04:13Z</time>
      </trkpt>
      <trkpt lat="47.21917" lon="6.04885">
        <ele>463.221161</ele>
        <time>2012-02-29T13:04:29Z</time>
      </trkpt>
      <trkpt lat="47.21908" lon="6.04861">
        <ele>462.342224</ele>
        <time>2012-02-29T13:04:47Z</time>
      </trkpt>
      <trkpt lat="47.21898" lon="6.04828">
        <ele>459.193787</ele>
        <time>2012-02-29T13:05:04Z</time>
      </trkpt>
      <trkpt lat="47.21894" lon="6.04814">
        <ele>457.490753</ele>
        <time>2012-02-29T13:05:13Z</time>
      </trkpt>
      <trkpt lat="47.21894" lon="6.04813">
        <ele>457.262421</ele>
        <time>2012-02-29T13:05:14Z</time>
      </trkpt>
      <trkpt lat="47.21892" lon="6.04806">
        <ele>456.603882</ele>
        <time>2012-02-29T13:05:20Z</time>
      </trkpt>
      <trkpt lat="47.21891" lon="6.04803">
        <ele>456.481323</ele>
        <time>2012-02-29T13:05:21Z</time>
      </trkpt>
      <trkpt lat="47.21887" lon="6.04792">
        <ele>455.639984</ele>
        <time>2012-02-29T13:05:29Z</time>
      </trkpt>
      <trkpt lat="47.21882" lon="6.0478">
        <ele>455.454865</ele>
        <time>2012-02-29T13:05:39Z</time>
      </trkpt>
      <trkpt lat="47.21882" lon="6.04774">
        <ele>454.673798</ele>
        <time>2012-02-29T13:05:49Z</time>
      </trkpt>
      <trkpt lat="47.21881" lon="6.04773">
        <ele>454.58905</ele>
        <time>2012-02-29T13:05:50Z</time>
      </trkpt>
      <trkpt lat="47.21881" lon="6.04771">
        <ele>454.399872</ele>
        <time>2012-02-29T13:05:51Z</time>
      </trkpt>
      <trkpt lat="47.21872" lon="6.04743">
        <ele>451.673004</ele>
        <time>2012-02-29T13:06:07Z</time>
      </trkpt>
      <trkpt lat="47.21868" lon="6.04733">
        <ele>451.273987</ele>
        <time>2012-02-29T13:06:26Z</time>
      </trkpt>
      <trkpt lat="47.21857" lon="6.04708">
        <ele>449.803436</ele>
        <time>2012-02-29T13:06:46Z</time>
      </trkpt>
      <trkpt lat="47.21846" lon="6.04683">
        <ele>447.212189</ele>
        <time>2012-02-29T13:07:04Z</time>
      </trkpt>
      <trkpt lat="47.21837" lon="6.0467">
        <ele>448.289001</ele>
        <time>2012-02-29T13:07:19Z</time>
      </trkpt>
      <trkpt lat="47.21825" lon="6.04666">
        <ele>453.903992</ele>
        <time>2012-02-29T13:07:37Z</time>
      </trkpt>
      <trkpt lat="47.2182" lon="6.04665">
        <ele>454.242493</ele>
        <time>2012-02-29T13:07:43Z</time>
      </trkpt>
      <trkpt lat="47.21819" lon="6.04666">
        <ele>454.201447</ele>
        <time>2012-02-29T13:07:44Z</time>
      </trkpt>
      <trkpt lat="47.21817" lon="6.04666">
        <ele>454.188751</ele>
        <time>2012-02-29T13:07:45Z</time>
      </trkpt>
      <trkpt lat="47.21815" lon="6.04667">
        <ele>454.15976</ele>
        <time>2012-02-29T13:07:46Z</time>
      </trkpt>
      <trkpt lat="47.21814" lon="6.04666">
        <ele>453.998749</ele>
        <time>2012-02-29T13:07:47Z</time>
      </trkpt>
      <trkpt lat="47.21813" lon="6.04663">
        <ele>453.636261</ele>
        <time>2012-02-29T13:07:48Z</time>
      </trkpt>
      <trkpt lat="47.21813" lon="6.0466">
        <ele>453.225494</ele>
        <time>2012-02-29T13:07:49Z</time>
      </trkpt>
      <trkpt lat="47.2181" lon="6.04623">
        <ele>447.537231</ele>
        <time>2012-02-29T13:08:03Z</time>
      </trkpt>
      <trkpt lat="47.21809" lon="6.04618">
        <ele>446.652283</ele>
        <time>2012-02-29T13:08:05Z</time>
      </trkpt>
      <trkpt lat="47.2181" lon="6.04615">
        <ele>445.655823</ele>
        <time>2012-02-29T13:08:07Z</time>
      </trkpt>
      <trkpt lat="47.21808" lon="6.04605">
        <ele>443.978912</ele>
        <time>2012-02-29T13:08:12Z</time>
      </trkpt>
      <trkpt lat="47.21807" lon="6.04604">
        <ele>444</ele>
        <time>2012-02-29T13:08:13Z</time>
      </trkpt>
      <trkpt lat="47.21801" lon="6.04596">
        <ele>444.253998</ele>
        <time>2012-02-29T13:08:20Z</time>
      </trkpt>
      <trkpt lat="47.21799" lon="6.04587">
        <ele>443.923584</ele>
        <time>2012-02-29T13:08:25Z</time>
      </trkpt>
      <trkpt lat="47.21799" lon="6.04584">
        <ele>443.617859</ele>
        <time>2012-02-29T13:08:26Z</time>
      </trkpt>
      <trkpt lat="47.21796" lon="6.04572">
        <ele>443.676819</ele>
        <time>2012-02-29T13:08:42Z</time>
      </trkpt>
      <trkpt lat="47.21796" lon="6.04568">
        <ele>442.942017</ele>
        <time>2012-02-29T13:09:04Z</time>
      </trkpt>
      <trkpt lat="47.21796" lon="6.04566">
        <ele>442.628784</ele>
        <time>2012-02-29T13:09:05Z</time>
      </trkpt>
      <trkpt lat="47.21796" lon="6.04563">
        <ele>442.292419</ele>
        <time>2012-02-29T13:09:06Z</time>
      </trkpt>
      <trkpt lat="47.21796" lon="6.04561">
        <ele>442.117981</ele>
        <time>2012-02-29T13:09:07Z</time>
      </trkpt>
      <trkpt lat="47.21796" lon="6.04559">
        <ele>442.026581</ele>
        <time>2012-02-29T13:09:08Z</time>
      </trkpt>
      <trkpt lat="47.21796" lon="6.04557">
        <ele>441.87851</ele>
        <time>2012-02-29T13:09:09Z</time>
      </trkpt>
      <trkpt lat="47.21796" lon="6.04554">
        <ele>441.639832</ele>
        <time>2012-02-29T13:09:10Z</time>
      </trkpt>
      <trkpt lat="47.21796" lon="6.04551">
        <ele>441.192291</ele>
        <time>2012-02-29T13:09:11Z</time>
      </trkpt>
      <trkpt lat="47.21796" lon="6.04548">
        <ele>440.933289</ele>
        <time>2012-02-29T13:09:12Z</time>
      </trkpt>
      <trkpt lat="47.21796" lon="6.04546">
        <ele>440.589783</ele>
        <time>2012-02-29T13:09:13Z</time>
      </trkpt>
      <trkpt lat="47.21795" lon="6.04544">
        <ele>440.568604</ele>
        <time>2012-02-29T13:09:14Z</time>
      </trkpt>
      <trkpt lat="47.21795" lon="6.04542">
        <ele>440.739685</ele>
        <time>2012-02-29T13:09:15Z</time>
      </trkpt>
      <trkpt lat="47.21794" lon="6.0454">
        <ele>440.902496</ele>
        <time>2012-02-29T13:09:16Z</time>
      </trkpt>
      <trkpt lat="47.21794" lon="6.04538">
        <ele>440.934387</ele>
        <time>2012-02-29T13:09:17Z</time>
      </trkpt>
      <trkpt lat="47.21793" lon="6.04537">
        <ele>440.990692</ele>
        <time>2012-02-29T13:09:18Z</time>
      </trkpt>
      <trkpt lat="47.21785" lon="6.04513">
        <ele>443.813812</ele>
        <time>2012-02-29T13:09:35Z</time>
      </trkpt>
      <trkpt lat="47.21779" lon="6.045">
        <ele>444.149139</ele>
        <time>2012-02-29T13:09:44Z</time>
      </trkpt>
      <trkpt lat="47.21772" lon="6.04488">
        <ele>445.276886</ele>
        <time>2012-02-29T13:09:53Z</time>
      </trkpt>
      <trkpt lat="47.2177" lon="6.04486">
        <ele>445.781128</ele>
        <time>2012-02-29T13:09:55Z</time>
      </trkpt>
      <trkpt lat="47.21763" lon="6.04469">
        <ele>447.540649</ele>
        <time>2012-02-29T13:10:12Z</time>
      </trkpt>
      <trkpt lat="47.21758" lon="6.04457">
        <ele>449.686737</ele>
        <time>2012-02-29T13:10:28Z</time>
      </trkpt>
      <trkpt lat="47.21756" lon="6.04451">
        <ele>450.532745</ele>
        <time>2012-02-29T13:10:33Z</time>
      </trkpt>
      <trkpt lat="47.21754" lon="6.04445">
        <ele>451.593781</ele>
        <time>2012-02-29T13:10:36Z</time>
      </trkpt>
      <trkpt lat="47.21748" lon="6.04433">
        <ele>455.096069</ele>
        <time>2012-02-29T13:10:48Z</time>
      </trkpt>
      <trkpt lat="47.21744" lon="6.0442">
        <ele>456.399872</ele>
        <time>2012-02-29T13:10:56Z</time>
      </trkpt>
      <trkpt lat="47.21743" lon="6.04409">
        <ele>456.411072</ele>
        <time>2012-02-29T13:11:02Z</time>
      </trkpt>
      <trkpt lat="47.21741" lon="6.04403">
        <ele>456.742004</ele>
        <time>2012-02-29T13:11:05Z</time>
      </trkpt>
      <trkpt lat="47.21736" lon="6.04369">
        <ele>454.611877</ele>
        <time>2012-02-29T13:11:20Z</time>
      </trkpt>
      <trkpt lat="47.21736" lon="6.0436">
        <ele>453.757965</ele>
        <time>2012-02-29T13:11:24Z</time>
      </trkpt>
      <trkpt lat="47.21732" lon="6.04338">
        <ele>451.799042</ele>
        <time>2012-02-29T13:11:38Z</time>
      </trkpt>
      <trkpt lat="47.21731" lon="6.04332">
        <ele>451.431519</ele>
        <time>2012-02-29T13:11:54Z</time>
      </trkpt>
      <trkpt lat="47.21725" lon="6.04304">
        <ele>450.672424</ele>
        <time>2012-02-29T13:12:06Z</time>
      </trkpt>
      <trkpt lat="47.21723" lon="6.04297">
        <ele>450.78064</ele>
        <time>2012-02-29T13:12:10Z</time>
      </trkpt>
      <trkpt lat="47.2172" lon="6.0429">
        <ele>451.080811</ele>
        <time>2012-02-29T13:12:14Z</time>
      </trkpt>
      <trkpt lat="47.21715" lon="6.04267">
        <ele>451.954987</ele>
        <time>2012-02-29T13:12:27Z</time>
      </trkpt>
      <trkpt lat="47.21713" lon="6.04246">
        <ele>451.732544</ele>
        <time>2012-02-29T13:12:41Z</time>
      </trkpt>
      <trkpt lat="47.21713" lon="6.04238">
        <ele>451.657349</ele>
        <time>2012-02-29T13:12:50Z</time>
      </trkpt>
      <trkpt lat="47.21711" lon="6.04227">
        <ele>451.677704</ele>
        <time>2012-02-29T13:12:56Z</time>
      </trkpt>
      <trkpt lat="47.21708" lon="6.04218">
        <ele>452.798248</ele>
        <time>2012-02-29T13:13:00Z</time>
      </trkpt>
      <trkpt lat="47.21704" lon="6.04193">
        <ele>452.614014</ele>
        <time>2012-02-29T13:13:12Z</time>
      </trkpt>
      <trkpt lat="47.21702" lon="6.04184">
        <ele>451.873993</ele>
        <time>2012-02-29T13:13:17Z</time>
      </trkpt>
      <trkpt lat="47.21698" lon="6.04165">
        <ele>450.388062</ele>
        <time>2012-02-29T13:13:25Z</time>
      </trkpt>
      <trkpt lat="47.21694" lon="6.04151">
        <ele>449.193756</ele>
        <time>2012-02-29T13:13:31Z</time>
      </trkpt>
      <trkpt lat="47.21689" lon="6.0414">
        <ele>449.079102</ele>
        <time>2012-02-29T13:13:37Z</time>
      </trkpt>
      <trkpt lat="47.21683" lon="6.04128">
        <ele>449.907227</ele>
        <time>2012-02-29T13:13:44Z</time>
      </trkpt>
      <trkpt lat="47.21672" lon="6.04091">
        <ele>453.872986</ele>
        <time>2012-02-29T13:14:03Z</time>
      </trkpt>
      <trkpt lat="47.21668" lon="6.04082">
        <ele>455.440002</ele>
        <time>2012-02-29T13:14:08Z</time>
      </trkpt>
      <trkpt lat="47.21664" lon="6.04052">
        <ele>456.252808</ele>
        <time>2012-02-29T13:14:26Z</time>
      </trkpt>
      <trkpt lat="47.21662" lon="6.04029">
        <ele>455.539764</ele>
        <time>2012-02-29T13:14:40Z</time>
      </trkpt>
      <trkpt lat="47.21661" lon="6.04023">
        <ele>454.646423</ele>
        <time>2012-02-29T13:14:43Z</time>
      </trkpt>
      <trkpt lat="47.21658" lon="6.04">
        <ele>451.64444</ele>
        <time>2012-02-29T13:14:57Z</time>
      </trkpt>
      <trkpt lat="47.21654" lon="6.03973">
        <ele>449.670288</ele>
        <time>2012-02-29T13:15:13Z</time>
      </trkpt>
      <trkpt lat="47.21654" lon="6.03973">
        <ele>449.670288</ele>
        <time>2012-02-29T13:15:14Z</time>
      </trkpt>
      <trkpt lat="47.21653" lon="6.03971">
        <ele>449.659668</ele>
        <time>2012-02-29T13:15:16Z</time>
      </trkpt>
      <trkpt lat="47.21651" lon="6.03968">
        <ele>450.083313</ele>
        <time>2012-02-29T13:15:18Z</time>
      </trkpt>
      <trkpt lat="47.21641" lon="6.03947">
        <ele>451.855804</ele>
        <time>2012-02-29T13:15:35Z</time>
      </trkpt>
      <trkpt lat="47.2164" lon="6.03943">
        <ele>451.923157</ele>
        <time>2012-02-29T13:15:38Z</time>
      </trkpt>
      <trkpt lat="47.21637" lon="6.03924">
        <ele>452.359924</ele>
        <time>2012-02-29T13:15:50Z</time>
      </trkpt>
      <trkpt lat="47.21632" lon="6.03911">
        <ele>454.800507</ele>
        <time>2012-02-29T13:16:03Z</time>
      </trkpt>
      <trkpt lat="47.21631" lon="6.03887">
        <ele>454.951294</ele>
        <time>2012-02-29T13:16:19Z</time>
      </trkpt>
      <trkpt lat="47.21629" lon="6.03876">
        <ele>455.504517</ele>
        <time>2012-02-29T13:16:27Z</time>
      </trkpt>
      <trkpt lat="47.21623" lon="6.03855">
        <ele>457.747253</ele>
        <time>2012-02-29T13:16:43Z</time>
      </trkpt>
      <trkpt lat="47.21622" lon="6.03849">
        <ele>457.616516</ele>
        <time>2012-02-29T13:16:48Z</time>
      </trkpt>
      <trkpt lat="47.21614" lon="6.03837">
        <ele>458.67395</ele>
        <time>2012-02-29T13:17:03Z</time>
      </trkpt>
      <trkpt lat="47.21605" lon="6.0382">
        <ele>460.754211</ele>
        <time>2012-02-29T13:17:18Z</time>
      </trkpt>
      <trkpt lat="47.21601" lon="6.038">
        <ele>461.199554</ele>
        <time>2012-02-29T13:17:33Z</time>
      </trkpt>
      <trkpt lat="47.21597" lon="6.0378">
        <ele>462.678802</ele>
        <time>2012-02-29T13:17:48Z</time>
      </trkpt>
      <trkpt lat="47.21595" lon="6.03761">
        <ele>463.898071</ele>
        <time>2012-02-29T13:18:02Z</time>
      </trkpt>
      <trkpt lat="47.21594" lon="6.03751">
        <ele>464.304535</ele>
        <time>2012-02-29T13:18:06Z</time>
      </trkpt>
      <trkpt lat="47.21592" lon="6.03741">
        <ele>465.282837</ele>
        <time>2012-02-29T13:18:13Z</time>
      </trkpt>
      <trkpt lat="47.21588" lon="6.03721">
        <ele>467.902008</ele>
        <time>2012-02-29T13:18:26Z</time>
      </trkpt>
      <trkpt lat="47.21588" lon="6.03718">
        <ele>467.909424</ele>
        <time>2012-02-29T13:18:28Z</time>
      </trkpt>
      <trkpt lat="47.21586" lon="6.03707">
        <ele>469.6008</ele>
        <time>2012-02-29T13:18:35Z</time>
      </trkpt>
      <trkpt lat="47.21586" lon="6.03704">
        <ele>470.096344</ele>
        <time>2012-02-29T13:18:37Z</time>
      </trkpt>
      <trkpt lat="47.21584" lon="6.03692">
        <ele>470.929199</ele>
        <time>2012-02-29T13:18:44Z</time>
      </trkpt>
      <trkpt lat="47.21581" lon="6.03665">
        <ele>470.229248</ele>
        <time>2012-02-29T13:18:58Z</time>
      </trkpt>
      <trkpt lat="47.21579" lon="6.03657">
        <ele>470.341736</ele>
        <time>2012-02-29T13:19:05Z</time>
      </trkpt>
      <trkpt lat="47.21574" lon="6.03636">
        <ele>470.986694</ele>
        <time>2012-02-29T13:19:21Z</time>
      </trkpt>
      <trkpt lat="47.21569" lon="6.03615">
        <ele>471.821381</ele>
        <time>2012-02-29T13:19:38Z</time>
      </trkpt>
      <trkpt lat="47.21568" lon="6.0361">
        <ele>472.035187</ele>
        <time>2012-02-29T13:19:41Z</time>
      </trkpt>
      <trkpt lat="47.21562" lon="6.03586">
        <ele>473.980438</ele>
        <time>2012-02-29T13:19:54Z</time>
      </trkpt>
      <trkpt lat="47.21558" lon="6.03566">
        <ele>475.416107</ele>
        <time>2012-02-29T13:20:07Z</time>
      </trkpt>
      <trkpt lat="47.21554" lon="6.03544">
        <ele>477.262604</ele>
        <time>2012-02-29T13:20:22Z</time>
      </trkpt>
      <trkpt lat="47.21548" lon="6.03512">
        <ele>479.864594</ele>
        <time>2012-02-29T13:20:41Z</time>
      </trkpt>
      <trkpt lat="47.21544" lon="6.03488">
        <ele>480.977264</ele>
        <time>2012-02-29T13:20:58Z</time>
      </trkpt>
      <trkpt lat="47.21539" lon="6.03469">
        <ele>481.265228</ele>
        <time>2012-02-29T13:21:14Z</time>
      </trkpt>
      <trkpt lat="47.21536" lon="6.0345">
        <ele>481.861176</ele>
        <time>2012-02-29T13:21:27Z</time>
      </trkpt>
      <trkpt lat="47.21532" lon="6.03431">
        <ele>482.977783</ele>
        <time>2012-02-29T13:21:41Z</time>
      </trkpt>
      <trkpt lat="47.2153" lon="6.03421">
        <ele>483.23349</ele>
        <time>2012-02-29T13:21:51Z</time>
      </trkpt>
      <trkpt lat="47.21525" lon="6.03403">
        <ele>483.593506</ele>
        <time>2012-02-29T13:22:05Z</time>
      </trkpt>
      <trkpt lat="47.21521" lon="6.03388">
        <ele>484.441132</ele>
        <time>2012-02-29T13:22:17Z</time>
      </trkpt>
      <trkpt lat="47.21517" lon="6.03365">
        <ele>485.807007</ele>
        <time>2012-02-29T13:22:30Z</time>
      </trkpt>
      <trkpt lat="47.21515" lon="6.03356">
        <ele>486.504395</ele>
        <time>2012-02-29T13:22:35Z</time>
      </trkpt>
      <trkpt lat="47.21514" lon="6.03346">
        <ele>486.870941</ele>
        <time>2012-02-29T13:22:40Z</time>
      </trkpt>
      <trkpt lat="47.21516" lon="6.03329">
        <ele>485.518066</ele>
        <time>2012-02-29T13:22:54Z</time>
      </trkpt>
      <trkpt lat="47.21524" lon="6.03314">
        <ele>481.51886</ele>
        <time>2012-02-29T13:23:10Z</time>
      </trkpt>
      <trkpt lat="47.21529" lon="6.03304">
        <ele>479.017151</ele>
        <time>2012-02-29T13:23:26Z</time>
      </trkpt>
      <trkpt lat="47.21537" lon="6.03293">
        <ele>474.190002</ele>
        <time>2012-02-29T13:23:41Z</time>
      </trkpt>
      <trkpt lat="47.21537" lon="6.0328">
        <ele>473.01001</ele>
        <time>2012-02-29T13:23:57Z</time>
      </trkpt>
      <trkpt lat="47.21535" lon="6.03265">
        <ele>472.51001</ele>
        <time>2012-02-29T13:24:09Z</time>
      </trkpt>
      <trkpt lat="47.2153" lon="6.03244">
        <ele>472.709991</ele>
        <time>2012-02-29T13:24:23Z</time>
      </trkpt>
      <trkpt lat="47.21528" lon="6.03233">
        <ele>472.449982</ele>
        <time>2012-02-29T13:24:40Z</time>
      </trkpt>
      <trkpt lat="47.21525" lon="6.03212">
        <ele>471.431274</ele>
        <time>2012-02-29T13:24:52Z</time>
      </trkpt>
      <trkpt lat="47.21517" lon="6.03181">
        <ele>470.931732</ele>
        <time>2012-02-29T13:25:09Z</time>
      </trkpt>
      <trkpt lat="47.21513" lon="6.03165">
        <ele>471.110901</ele>
        <time>2012-02-29T13:25:17Z</time>
      </trkpt>
      <trkpt lat="47.21508" lon="6.03153">
        <ele>471.561615</ele>
        <time>2012-02-29T13:25:24Z</time>
      </trkpt>
      <trkpt lat="47.21504" lon="6.03137">
        <ele>471.445404</ele>
        <time>2012-02-29T13:25:32Z</time>
      </trkpt>
      <trkpt lat="47.21502" lon="6.03131">
        <ele>471.974487</ele>
        <time>2012-02-29T13:25:35Z</time>
      </trkpt>
      <trkpt lat="47.21494" lon="6.03102">
        <ele>473.617035</ele>
        <time>2012-02-29T13:25:49Z</time>
      </trkpt>
      <trkpt lat="47.21493" lon="6.03092">
        <ele>473.443817</ele>
        <time>2012-02-29T13:25:55Z</time>
      </trkpt>
      <trkpt lat="47.21494" lon="6.0308">
        <ele>472.043915</ele>
        <time>2012-02-29T13:26:01Z</time>
      </trkpt>
      <trkpt lat="47.21493" lon="6.03066">
        <ele>471.47171</ele>
        <time>2012-02-29T13:26:09Z</time>
      </trkpt>
      <trkpt lat="47.2149" lon="6.03043">
        <ele>471.588531</ele>
        <time>2012-02-29T13:26:23Z</time>
      </trkpt>
      <trkpt lat="47.21488" lon="6.03032">
        <ele>472.0625</ele>
        <time>2012-02-29T13:26:38Z</time>
      </trkpt>
      <trkpt lat="47.21488" lon="6.03032">
        <ele>472.0625</ele>
        <time>2012-02-29T13:27:02Z</time>
      </trkpt>
      <trkpt lat="47.21488" lon="6.03031">
        <ele>472.235535</ele>
        <time>2012-02-29T13:27:23Z</time>
      </trkpt>
      <trkpt lat="47.21488" lon="6.03031">
        <ele>472.235535</ele>
        <time>2012-02-29T13:27:37Z</time>
      </trkpt>
      <trkpt lat="47.21488" lon="6.03031">
        <ele>472.235535</ele>
        <time>2012-02-29T13:27:40Z</time>
      </trkpt>
      <trkpt lat="47.21494" lon="6.03001">
        <ele>469.391205</ele>
        <time>2012-02-29T13:27:55Z</time>
      </trkpt>
      <trkpt lat="47.21493" lon="6.02994">
        <ele>470.09024</ele>
        <time>2012-02-29T13:28:09Z</time>
      </trkpt>
      <trkpt lat="47.21493" lon="6.02984">
        <ele>470.229004</ele>
        <time>2012-02-29T13:28:22Z</time>
      </trkpt>
      <trkpt lat="47.21492" lon="6.02981">
        <ele>470.970001</ele>
        <time>2012-02-29T13:28:38Z</time>
      </trkpt>
      <trkpt lat="47.21487" lon="6.02969">
        <ele>473.677032</ele>
        <time>2012-02-29T13:28:54Z</time>
      </trkpt>
      <trkpt lat="47.21486" lon="6.02967">
        <ele>474.276337</ele>
        <time>2012-02-29T13:29:10Z</time>
      </trkpt>
      <trkpt lat="47.21482" lon="6.0295">
        <ele>476.774261</ele>
        <time>2012-02-29T13:29:25Z</time>
      </trkpt>
      <trkpt lat="47.21482" lon="6.02949">
        <ele>476.881165</ele>
        <time>2012-02-29T13:29:39Z</time>
      </trkpt>
      <trkpt lat="47.21475" lon="6.02927">
        <ele>480.877533</ele>
        <time>2012-02-29T13:29:56Z</time>
      </trkpt>
      <trkpt lat="47.21472" lon="6.02926">
        <ele>481.426666</ele>
        <time>2012-02-29T13:30:11Z</time>
      </trkpt>
      <trkpt lat="47.21461" lon="6.02903">
        <ele>483.883423</ele>
        <time>2012-02-29T13:30:26Z</time>
      </trkpt>
      <trkpt lat="47.21454" lon="6.02887">
        <ele>484.343506</ele>
        <time>2012-02-29T13:30:40Z</time>
      </trkpt>
      <trkpt lat="47.2145" lon="6.0286">
        <ele>481.156616</ele>
        <time>2012-02-29T13:30:54Z</time>
      </trkpt>
      <trkpt lat="47.21449" lon="6.02857">
        <ele>481.009399</ele>
        <time>2012-02-29T13:30:55Z</time>
      </trkpt>
      <trkpt lat="47.21444" lon="6.02848">
        <ele>481.587738</ele>
        <time>2012-02-29T13:31:11Z</time>
      </trkpt>
      <trkpt lat="47.21444" lon="6.02848">
        <ele>481.587738</ele>
        <time>2012-02-29T13:31:39Z</time>
      </trkpt>
      <trkpt lat="47.21443" lon="6.02847">
        <ele>481.729797</ele>
        <time>2012-02-29T13:32:00Z</time>
      </trkpt>
      <trkpt lat="47.2144" lon="6.02839">
        <ele>481.879791</ele>
        <time>2012-02-29T13:32:19Z</time>
      </trkpt>
      <trkpt lat="47.21439" lon="6.02837">
        <ele>482.06131</ele>
        <time>2012-02-29T13:32:46Z</time>
      </trkpt>
      <trkpt lat="47.21439" lon="6.02837">
        <ele>482.06131</ele>
        <time>2012-02-29T13:33:04Z</time>
      </trkpt>
      <trkpt lat="47.21439" lon="6.02835">
        <ele>481.769196</ele>
        <time>2012-02-29T13:33:27Z</time>
      </trkpt>
      <trkpt lat="47.21439" lon="6.02835">
        <ele>481.769196</ele>
        <time>2012-02-29T13:33:44Z</time>
      </trkpt>
      <trkpt lat="47.21439" lon="6.02834">
        <ele>481.726349</ele>
        <time>2012-02-29T13:33:59Z</time>
      </trkpt>
      <trkpt lat="47.2144" lon="6.02829">
        <ele>480.673309</ele>
        <time>2012-02-29T13:34:15Z</time>
      </trkpt>
      <trkpt lat="47.21438" lon="6.02806">
        <ele>475.613373</ele>
        <time>2012-02-29T13:34:31Z</time>
      </trkpt>
      <trkpt lat="47.21443" lon="6.02798">
        <ele>471.580811</ele>
        <time>2012-02-29T13:34:47Z</time>
      </trkpt>
      <trkpt lat="47.21448" lon="6.02787">
        <ele>466.849976</ele>
        <time>2012-02-29T13:35:00Z</time>
      </trkpt>
      <trkpt lat="47.21449" lon="6.02784">
        <ele>465.573792</ele>
        <time>2012-02-29T13:35:19Z</time>
      </trkpt>
      <trkpt lat="47.2145" lon="6.02779">
        <ele>463.672699</ele>
        <time>2012-02-29T13:35:34Z</time>
      </trkpt>
      <trkpt lat="47.2145" lon="6.02779">
        <ele>463.672699</ele>
        <time>2012-02-29T13:35:56Z</time>
      </trkpt>
      <trkpt lat="47.2145" lon="6.02776">
        <ele>463.004761</ele>
        <time>2012-02-29T13:36:12Z</time>
      </trkpt>
      <trkpt lat="47.2145" lon="6.02776">
        <ele>463.004761</ele>
        <time>2012-02-29T13:36:39Z</time>
      </trkpt>
      <trkpt lat="47.21448" lon="6.02769">
        <ele>461.868988</ele>
        <time>2012-02-29T13:36:57Z</time>
      </trkpt>
      <trkpt lat="47.21439" lon="6.02752">
        <ele>461.16629</ele>
        <time>2012-02-29T13:37:13Z</time>
      </trkpt>
      <trkpt lat="47.21428" lon="6.02734">
        <ele>461.751495</ele>
        <time>2012-02-29T13:37:29Z</time>
      </trkpt>
      <trkpt lat="47.21427" lon="6.0273">
        <ele>461.449524</ele>
        <time>2012-02-29T13:37:31Z</time>
      </trkpt>
      <trkpt lat="47.21425" lon="6.02722">
        <ele>461.044159</ele>
        <time>2012-02-29T13:37:36Z</time>
      </trkpt>
      <trkpt lat="47.21421" lon="6.02713">
        <ele>461.001221</ele>
        <time>2012-02-29T13:37:42Z</time>
      </trkpt>
      <trkpt lat="47.21417" lon="6.0269">
        <ele>459.287018</ele>
        <time>2012-02-29T13:37:59Z</time>
      </trkpt>
      <trkpt lat="47.21415" lon="6.02675">
        <ele>458.927551</ele>
        <time>2012-02-29T13:38:08Z</time>
      </trkpt>
      <trkpt lat="47.21408" lon="6.02661">
        <ele>461.015991</ele>
        <time>2012-02-29T13:38:23Z</time>
      </trkpt>
      <trkpt lat="47.214" lon="6.02656">
        <ele>464.903992</ele>
        <time>2012-02-29T13:38:36Z</time>
      </trkpt>
      <trkpt lat="47.21392" lon="6.02652">
        <ele>467.958435</ele>
        <time>2012-02-29T13:38:46Z</time>
      </trkpt>
      <trkpt lat="47.2139" lon="6.02651">
        <ele>467.741302</ele>
        <time>2012-02-29T13:38:48Z</time>
      </trkpt>
      <trkpt lat="47.21383" lon="6.02631">
        <ele>466.240845</ele>
        <time>2012-02-29T13:39:00Z</time>
      </trkpt>
      <trkpt lat="47.21381" lon="6.02624">
        <ele>465.922546</ele>
        <time>2012-02-29T13:39:04Z</time>
      </trkpt>
      <trkpt lat="47.21376" lon="6.02615">
        <ele>466.112549</ele>
        <time>2012-02-29T13:39:10Z</time>
      </trkpt>
      <trkpt lat="47.21372" lon="6.02599">
        <ele>466.474274</ele>
        <time>2012-02-29T13:39:22Z</time>
      </trkpt>
      <trkpt lat="47.21372" lon="6.02593">
        <ele>466.528381</ele>
        <time>2012-02-29T13:39:25Z</time>
      </trkpt>
      <trkpt lat="47.21371" lon="6.02573">
        <ele>466.800598</ele>
        <time>2012-02-29T13:39:38Z</time>
      </trkpt>
      <trkpt lat="47.21367" lon="6.02555">
        <ele>467.680511</ele>
        <time>2012-02-29T13:39:52Z</time>
      </trkpt>
      <trkpt lat="47.21367" lon="6.02554">
        <ele>467.689178</ele>
        <time>2012-02-29T13:39:53Z</time>
      </trkpt>
      <trkpt lat="47.21366" lon="6.02544">
        <ele>467.310425</ele>
        <time>2012-02-29T13:39:58Z</time>
      </trkpt>
      <trkpt lat="47.21365" lon="6.02541">
        <ele>467.564209</ele>
        <time>2012-02-29T13:40:00Z</time>
      </trkpt>
      <trkpt lat="47.21363" lon="6.02512">
        <ele>466.639648</ele>
        <time>2012-02-29T13:40:18Z</time>
      </trkpt>
      <trkpt lat="47.2136" lon="6.02494">
        <ele>467.275543</ele>
        <time>2012-02-29T13:40:31Z</time>
      </trkpt>
      <trkpt lat="47.21358" lon="6.02482">
        <ele>467.557617</ele>
        <time>2012-02-29T13:40:45Z</time>
      </trkpt>
      <trkpt lat="47.21358" lon="6.02481">
        <ele>467.646484</ele>
        <time>2012-02-29T13:40:46Z</time>
      </trkpt>
      <trkpt lat="47.21348" lon="6.02455">
        <ele>467.582764</ele>
        <time>2012-02-29T13:41:02Z</time>
      </trkpt>
      <trkpt lat="47.21346" lon="6.02452">
        <ele>467.340393</ele>
        <time>2012-02-29T13:41:05Z</time>
      </trkpt>
      <trkpt lat="47.21344" lon="6.02443">
        <ele>467.156006</ele>
        <time>2012-02-29T13:41:10Z</time>
      </trkpt>
      <trkpt lat="47.21341" lon="6.02418">
        <ele>466.8992</ele>
        <time>2012-02-29T13:41:26Z</time>
      </trkpt>
      <trkpt lat="47.21338" lon="6.02392">
        <ele>465.52475</ele>
        <time>2012-02-29T13:41:43Z</time>
      </trkpt>
      <trkpt lat="47.21331" lon="6.02374">
        <ele>465.807495</ele>
        <time>2012-02-29T13:41:58Z</time>
      </trkpt>
      <trkpt lat="47.21328" lon="6.02367">
        <ele>466.180389</ele>
        <time>2012-02-29T13:42:11Z</time>
      </trkpt>
      <trkpt lat="47.2132" lon="6.02352">
        <ele>467.57251</ele>
        <time>2012-02-29T13:42:26Z</time>
      </trkpt>
      <trkpt lat="47.21317" lon="6.02342">
        <ele>467.177521</ele>
        <time>2012-02-29T13:42:40Z</time>
      </trkpt>
      <trkpt lat="47.21308" lon="6.02327">
        <ele>464.619598</ele>
        <time>2012-02-29T13:42:54Z</time>
      </trkpt>
      <trkpt lat="47.21302" lon="6.02325">
        <ele>463.063751</ele>
        <time>2012-02-29T13:43:08Z</time>
      </trkpt>
      <trkpt lat="47.21298" lon="6.02316">
        <ele>461.393341</ele>
        <time>2012-02-29T13:43:23Z</time>
      </trkpt>
      <trkpt lat="47.21294" lon="6.0231">
        <ele>460.226624</ele>
        <time>2012-02-29T13:43:39Z</time>
      </trkpt>
      <trkpt lat="47.2129" lon="6.02305">
        <ele>459.257477</ele>
        <time>2012-02-29T13:43:54Z</time>
      </trkpt>
      <trkpt lat="47.21285" lon="6.02302">
        <ele>458.487396</ele>
        <time>2012-02-29T13:43:59Z</time>
      </trkpt>
      <trkpt lat="47.21281" lon="6.02299">
        <ele>457.853638</ele>
        <time>2012-02-29T13:44:03Z</time>
      </trkpt>
      <trkpt lat="47.21267" lon="6.02288">
        <ele>455.982452</ele>
        <time>2012-02-29T13:44:17Z</time>
      </trkpt>
      <trkpt lat="47.21264" lon="6.02281">
        <ele>454.689392</ele>
        <time>2012-02-29T13:44:32Z</time>
      </trkpt>
      <trkpt lat="47.21264" lon="6.02281">
        <ele>454.529846</ele>
        <time>2012-02-29T13:45:00Z</time>
      </trkpt>
      <trkpt lat="47.21264" lon="6.02281">
        <ele>454.529846</ele>
        <time>2012-02-29T13:45:29Z</time>
      </trkpt>
      <trkpt lat="47.21264" lon="6.02281">
        <ele>454.529846</ele>
        <time>2012-02-29T13:45:54Z</time>
      </trkpt>
      <trkpt lat="47.21266" lon="6.02277">
        <ele>454.577332</ele>
        <time>2012-02-29T13:46:33Z</time>
      </trkpt>
      <trkpt lat="47.21266" lon="6.02277">
        <ele>454.581238</ele>
        <time>2012-02-29T13:47:04Z</time>
      </trkpt>
      <trkpt lat="47.21266" lon="6.02277">
        <ele>454.581238</ele>
        <time>2012-02-29T13:47:20Z</time>
      </trkpt>
      <trkpt lat="47.21267" lon="6.02274">
        <ele>454.611786</ele>
        <time>2012-02-29T13:47:25Z</time>
      </trkpt>
      <trkpt lat="47.21277" lon="6.02266">
        <ele>454.553955</ele>
        <time>2012-02-29T13:47:32Z</time>
      </trkpt>
      <trkpt lat="47.21283" lon="6.02265">
        <ele>454.446991</ele>
        <time>2012-02-29T13:47:38Z</time>
      </trkpt>
      <trkpt lat="47.21287" lon="6.02262">
        <ele>454.14386</ele>
        <time>2012-02-29T13:47:41Z</time>
      </trkpt>
      <trkpt lat="47.21303" lon="6.02245">
        <ele>451.03299</ele>
        <time>2012-02-29T13:47:58Z</time>
      </trkpt>
      <trkpt lat="47.21312" lon="6.02227">
        <ele>447.313751</ele>
        <time>2012-02-29T13:48:13Z</time>
      </trkpt>
      <trkpt lat="47.21315" lon="6.02222">
        <ele>446.107208</ele>
        <time>2012-02-29T13:48:17Z</time>
      </trkpt>
      <trkpt lat="47.21316" lon="6.02219">
        <ele>445.76001</ele>
        <time>2012-02-29T13:48:19Z</time>
      </trkpt>
      <trkpt lat="47.21317" lon="6.02201">
        <ele>444.140015</ele>
        <time>2012-02-29T13:48:32Z</time>
      </trkpt>
      <trkpt lat="47.21316" lon="6.02189">
        <ele>443.095001</ele>
        <time>2012-02-29T13:48:42Z</time>
      </trkpt>
      <trkpt lat="47.21313" lon="6.02171">
        <ele>441.575012</ele>
        <time>2012-02-29T13:48:57Z</time>
      </trkpt>
      <trkpt lat="47.21311" lon="6.02166">
        <ele>441.204987</ele>
        <time>2012-02-29T13:49:01Z</time>
      </trkpt>
      <trkpt lat="47.21303" lon="6.0215">
        <ele>440.174988</ele>
        <time>2012-02-29T13:49:16Z</time>
      </trkpt>
      <trkpt lat="47.21301" lon="6.02129">
        <ele>438.422485</ele>
        <time>2012-02-29T13:49:31Z</time>
      </trkpt>
      <trkpt lat="47.21301" lon="6.02129">
        <ele>438.422485</ele>
        <time>2012-02-29T13:49:38Z</time>
      </trkpt>
      <trkpt lat="47.21307" lon="6.02098">
        <ele>435.350006</ele>
        <time>2012-02-29T13:49:55Z</time>
      </trkpt>
      <trkpt lat="47.21314" lon="6.02071">
        <ele>432.95694</ele>
        <time>2012-02-29T13:50:08Z</time>
      </trkpt>
      <trkpt lat="47.21317" lon="6.02054">
        <ele>431.610107</ele>
        <time>2012-02-29T13:50:22Z</time>
      </trkpt>
      <trkpt lat="47.2132" lon="6.02032">
        <ele>429.900177</ele>
        <time>2012-02-29T13:50:35Z</time>
      </trkpt>
      <trkpt lat="47.2132" lon="6.02019">
        <ele>429.253723</ele>
        <time>2012-02-29T13:50:45Z</time>
      </trkpt>
      <trkpt lat="47.21321" lon="6.01996">
        <ele>428.755615</ele>
        <time>2012-02-29T13:50:58Z</time>
      </trkpt>
      <trkpt lat="47.21322" lon="6.0198">
        <ele>428.463013</ele>
        <time>2012-02-29T13:51:11Z</time>
      </trkpt>
      <trkpt lat="47.21329" lon="6.0196">
        <ele>427.502502</ele>
        <time>2012-02-29T13:51:25Z</time>
      </trkpt>
      <trkpt lat="47.21334" lon="6.01946">
        <ele>426.553802</ele>
        <time>2012-02-29T13:51:36Z</time>
      </trkpt>
      <trkpt lat="47.21336" lon="6.01941">
        <ele>426.188812</ele>
        <time>2012-02-29T13:51:39Z</time>
      </trkpt>
      <trkpt lat="47.21337" lon="6.01937">
        <ele>425.986237</ele>
        <time>2012-02-29T13:51:42Z</time>
      </trkpt>
      <trkpt lat="47.21339" lon="6.01933">
        <ele>425.658966</ele>
        <time>2012-02-29T13:51:45Z</time>
      </trkpt>
      <trkpt lat="47.21347" lon="6.01913">
        <ele>424.517639</ele>
        <time>2012-02-29T13:52:00Z</time>
      </trkpt>
      <trkpt lat="47.21349" lon="6.01907">
        <ele>424.231262</ele>
        <time>2012-02-29T13:52:05Z</time>
      </trkpt>
      <trkpt lat="47.21354" lon="6.01883">
        <ele>423.30249</ele>
        <time>2012-02-29T13:52:21Z</time>
      </trkpt>
      <trkpt lat="47.21354" lon="6.0186">
        <ele>422.725006</ele>
        <time>2012-02-29T13:52:36Z</time>
      </trkpt>
      <trkpt lat="47.21354" lon="6.01859">
        <ele>422.682495</ele>
        <time>2012-02-29T13:52:37Z</time>
      </trkpt>
      <trkpt lat="47.21353" lon="6.01845">
        <ele>422.404999</ele>
        <time>2012-02-29T13:52:45Z</time>
      </trkpt>
      <trkpt lat="47.2135" lon="6.0183">
        <ele>422.190002</ele>
        <time>2012-02-29T13:52:52Z</time>
      </trkpt>
      <trkpt lat="47.21346" lon="6.01813">
        <ele>422.084991</ele>
        <time>2012-02-29T13:53:01Z</time>
      </trkpt>
      <trkpt lat="47.21343" lon="6.018">
        <ele>422.024994</ele>
        <time>2012-02-29T13:53:10Z</time>
      </trkpt>
      <trkpt lat="47.21337" lon="6.01789">
        <ele>422.295013</ele>
        <time>2012-02-29T13:53:18Z</time>
      </trkpt>
      <trkpt lat="47.21336" lon="6.01776">
        <ele>421.98999</ele>
        <time>2012-02-29T13:53:25Z</time>
      </trkpt>
      <trkpt lat="47.21331" lon="6.01766">
        <ele>422.19165</ele>
        <time>2012-02-29T13:53:33Z</time>
      </trkpt>
      <trkpt lat="47.21327" lon="6.01762">
        <ele>422.580933</ele>
        <time>2012-02-29T13:53:37Z</time>
      </trkpt>
      <trkpt lat="47.2132" lon="6.01747">
        <ele>422.515015</ele>
        <time>2012-02-29T13:53:46Z</time>
      </trkpt>
      <trkpt lat="47.21321" lon="6.01737">
        <ele>421.86499</ele>
        <time>2012-02-29T13:53:50Z</time>
      </trkpt>
      <trkpt lat="47.21325" lon="6.01706">
        <ele>419.625</ele>
        <time>2012-02-29T13:54:07Z</time>
      </trkpt>
      <trkpt lat="47.21319" lon="6.01689">
        <ele>419.427734</ele>
        <time>2012-02-29T13:54:18Z</time>
      </trkpt>
      <trkpt lat="47.21312" lon="6.01671">
        <ele>419.613892</ele>
        <time>2012-02-29T13:54:30Z</time>
      </trkpt>
      <trkpt lat="47.21303" lon="6.01652">
        <ele>420.079742</ele>
        <time>2012-02-29T13:54:44Z</time>
      </trkpt>
      <trkpt lat="47.21292" lon="6.01635">
        <ele>421.07489</ele>
        <time>2012-02-29T13:54:58Z</time>
      </trkpt>
      <trkpt lat="47.21284" lon="6.01621">
        <ele>421.681244</ele>
        <time>2012-02-29T13:55:10Z</time>
      </trkpt>
      <trkpt lat="47.21282" lon="6.01616">
        <ele>421.861237</ele>
        <time>2012-02-29T13:55:13Z</time>
      </trkpt>
      <trkpt lat="47.2128" lon="6.01609">
        <ele>422.03125</ele>
        <time>2012-02-29T13:55:17Z</time>
      </trkpt>
      <trkpt lat="47.21277" lon="6.01599">
        <ele>422.237488</ele>
        <time>2012-02-29T13:55:23Z</time>
      </trkpt>
      <trkpt lat="47.21271" lon="6.01584">
        <ele>422.758759</ele>
        <time>2012-02-29T13:55:34Z</time>
      </trkpt>
      <trkpt lat="47.21268" lon="6.01577">
        <ele>422.981262</ele>
        <time>2012-02-29T13:55:38Z</time>
      </trkpt>
      <trkpt lat="47.21266" lon="6.0157">
        <ele>423.17749</ele>
        <time>2012-02-29T13:55:42Z</time>
      </trkpt>
      <trkpt lat="47.21262" lon="6.01561">
        <ele>423.428741</ele>
        <time>2012-02-29T13:55:47Z</time>
      </trkpt>
      <trkpt lat="47.21261" lon="6.01557">
        <ele>423.536438</ele>
        <time>2012-02-29T13:55:50Z</time>
      </trkpt>
      <trkpt lat="47.21258" lon="6.01553">
        <ele>423.680756</ele>
        <time>2012-02-29T13:55:53Z</time>
      </trkpt>
      <trkpt lat="47.21257" lon="6.01547">
        <ele>423.624603</ele>
        <time>2012-02-29T13:55:56Z</time>
      </trkpt>
      <trkpt lat="47.21252" lon="6.01534">
        <ele>423.673431</ele>
        <time>2012-02-29T13:56:05Z</time>
      </trkpt>
      <trkpt lat="47.21248" lon="6.01528">
        <ele>423.795013</ele>
        <time>2012-02-29T13:56:10Z</time>
      </trkpt>
      <trkpt lat="47.21243" lon="6.01522">
        <ele>423.952515</ele>
        <time>2012-02-29T13:56:15Z</time>
      </trkpt>
      <trkpt lat="47.21229" lon="6.01501">
        <ele>424.356262</ele>
        <time>2012-02-29T13:56:30Z</time>
      </trkpt>
      <trkpt lat="47.21227" lon="6.01496">
        <ele>424.347504</ele>
        <time>2012-02-29T13:56:34Z</time>
      </trkpt>
      <trkpt lat="47.2122" lon="6.01484">
        <ele>424.442017</ele>
        <time>2012-02-29T13:56:43Z</time>
      </trkpt>
      <trkpt lat="47.21217" lon="6.01479">
        <ele>424.505615</ele>
        <time>2012-02-29T13:56:47Z</time>
      </trkpt>
      <trkpt lat="47.2121" lon="6.0147">
        <ele>424.589508</ele>
        <time>2012-02-29T13:56:55Z</time>
      </trkpt>
      <trkpt lat="47.21195" lon="6.01454">
        <ele>424.470001</ele>
        <time>2012-02-29T13:57:10Z</time>
      </trkpt>
      <trkpt lat="47.21182" lon="6.01439">
        <ele>424.220001</ele>
        <time>2012-02-29T13:57:24Z</time>
      </trkpt>
      <trkpt lat="47.21168" lon="6.01418">
        <ele>423.700012</ele>
        <time>2012-02-29T13:57:38Z</time>
      </trkpt>
      <trkpt lat="47.21161" lon="6.01411">
        <ele>423.63559</ele>
        <time>2012-02-29T13:57:45Z</time>
      </trkpt>
      <trkpt lat="47.21158" lon="6.01411">
        <ele>423.713959</ele>
        <time>2012-02-29T13:57:47Z</time>
      </trkpt>
      <trkpt lat="47.21145" lon="6.01391">
        <ele>423.047455</ele>
        <time>2012-02-29T13:58:04Z</time>
      </trkpt>
      <trkpt lat="47.21136" lon="6.01382">
        <ele>422.799744</ele>
        <time>2012-02-29T13:58:13Z</time>
      </trkpt>
      <trkpt lat="47.21131" lon="6.01376">
        <ele>422.527405</ele>
        <time>2012-02-29T13:58:20Z</time>
      </trkpt>
      <trkpt lat="47.21127" lon="6.01372">
        <ele>422.397308</ele>
        <time>2012-02-29T13:58:23Z</time>
      </trkpt>
      <trkpt lat="47.21123" lon="6.0137">
        <ele>422.401794</ele>
        <time>2012-02-29T13:58:27Z</time>
      </trkpt>
      <trkpt lat="47.21115" lon="6.01363">
        <ele>422.152985</ele>
        <time>2012-02-29T13:58:37Z</time>
      </trkpt>
      <trkpt lat="47.21101" lon="6.01354">
        <ele>422.162262</ele>
        <time>2012-02-29T13:58:50Z</time>
      </trkpt>
      <trkpt lat="47.21095" lon="6.0135">
        <ele>422.247253</ele>
        <time>2012-02-29T13:58:54Z</time>
      </trkpt>
      <trkpt lat="47.21087" lon="6.01347">
        <ele>422.40625</ele>
        <time>2012-02-29T13:59:01Z</time>
      </trkpt>
      <trkpt lat="47.21075" lon="6.01338">
        <ele>422.613739</ele>
        <time>2012-02-29T13:59:13Z</time>
      </trkpt>
      <trkpt lat="47.2107" lon="6.01336">
        <ele>422.63501</ele>
        <time>2012-02-29T13:59:18Z</time>
      </trkpt>
      <trkpt lat="47.21068" lon="6.01334">
        <ele>422.621246</ele>
        <time>2012-02-29T13:59:21Z</time>
      </trkpt>
      <trkpt lat="47.21063" lon="6.01327">
        <ele>422.41626</ele>
        <time>2012-02-29T13:59:26Z</time>
      </trkpt>
      <trkpt lat="47.21049" lon="6.0131">
        <ele>421.998749</ele>
        <time>2012-02-29T13:59:41Z</time>
      </trkpt>
      <trkpt lat="47.21037" lon="6.01291">
        <ele>421.462494</ele>
        <time>2012-02-29T13:59:57Z</time>
      </trkpt>
      <trkpt lat="47.21025" lon="6.01276">
        <ele>420.65564</ele>
        <time>2012-02-29T14:00:11Z</time>
      </trkpt>
      <trkpt lat="47.21026" lon="6.01274">
        <ele>420.611816</ele>
        <time>2012-02-29T14:00:30Z</time>
      </trkpt>
      <trkpt lat="47.21026" lon="6.01274">
        <ele>420.578552</ele>
        <time>2012-02-29T14:01:01Z</time>
      </trkpt>
      <trkpt lat="47.21026" lon="6.01274">
        <ele>420.578552</ele>
        <time>2012-02-29T14:01:32Z</time>
      </trkpt>
      <trkpt lat="47.21026" lon="6.01263">
        <ele>420.10141</ele>
        <time>2012-02-29T14:01:52Z</time>
      </trkpt>
      <trkpt lat="47.21026" lon="6.01261">
        <ele>420.013763</ele>
        <time>2012-02-29T14:01:53Z</time>
      </trkpt>
      <trkpt lat="47.21026" lon="6.01256">
        <ele>419.798676</ele>
        <time>2012-02-29T14:01:55Z</time>
      </trkpt>
      <trkpt lat="47.21025" lon="6.01235">
        <ele>418.86673</ele>
        <time>2012-02-29T14:02:04Z</time>
      </trkpt>
      <trkpt lat="47.21024" lon="6.01227">
        <ele>418.460663</ele>
        <time>2012-02-29T14:02:09Z</time>
      </trkpt>
      <trkpt lat="47.21022" lon="6.01216">
        <ele>417.934753</ele>
        <time>2012-02-29T14:02:15Z</time>
      </trkpt>
      <trkpt lat="47.21021" lon="6.01207">
        <ele>417.744629</ele>
        <time>2012-02-29T14:02:20Z</time>
      </trkpt>
      <trkpt lat="47.21015" lon="6.01186">
        <ele>417.777344</ele>
        <time>2012-02-29T14:02:33Z</time>
      </trkpt>
      <trkpt lat="47.21014" lon="6.01177">
        <ele>417.812714</ele>
        <time>2012-02-29T14:02:38Z</time>
      </trkpt>
      <trkpt lat="47.2101" lon="6.01156">
        <ele>417.788452</ele>
        <time>2012-02-29T14:02:52Z</time>
      </trkpt>
      <trkpt lat="47.21008" lon="6.01146">
        <ele>417.748138</ele>
        <time>2012-02-29T14:02:58Z</time>
      </trkpt>
      <trkpt lat="47.21004" lon="6.0113">
        <ele>417.925873</ele>
        <time>2012-02-29T14:03:08Z</time>
      </trkpt>
      <trkpt lat="47.21" lon="6.0112">
        <ele>418.029327</ele>
        <time>2012-02-29T14:03:15Z</time>
      </trkpt>
      <trkpt lat="47.20992" lon="6.01099">
        <ele>418.305145</ele>
        <time>2012-02-29T14:03:30Z</time>
      </trkpt>
      <trkpt lat="47.20991" lon="6.01094">
        <ele>418.428345</ele>
        <time>2012-02-29T14:03:33Z</time>
      </trkpt>
      <trkpt lat="47.20987" lon="6.01086">
        <ele>418.576355</ele>
        <time>2012-02-29T14:03:39Z</time>
      </trkpt>
      <trkpt lat="47.20978" lon="6.01072">
        <ele>418.867249</ele>
        <time>2012-02-29T14:03:50Z</time>
      </trkpt>
      <trkpt lat="47.20973" lon="6.0106">
        <ele>419.363037</ele>
        <time>2012-02-29T14:04:00Z</time>
      </trkpt>
      <trkpt lat="47.20972" lon="6.01059">
        <ele>419.41507</ele>
        <time>2012-02-29T14:04:01Z</time>
      </trkpt>
      <trkpt lat="47.20967" lon="6.01048">
        <ele>419.76001</ele>
        <time>2012-02-29T14:04:09Z</time>
      </trkpt>
      <trkpt lat="47.2096" lon="6.01037">
        <ele>420.054382</ele>
        <time>2012-02-29T14:04:18Z</time>
      </trkpt>
      <trkpt lat="47.20954" lon="6.01028">
        <ele>420.26297</ele>
        <time>2012-02-29T14:04:27Z</time>
      </trkpt>
      <trkpt lat="47.20951" lon="6.0102">
        <ele>420.497955</ele>
        <time>2012-02-29T14:04:33Z</time>
      </trkpt>
      <trkpt lat="47.20945" lon="6.00998">
        <ele>421.156006</ele>
        <time>2012-02-29T14:04:47Z</time>
      </trkpt>
      <trkpt lat="47.20939" lon="6.00977">
        <ele>421.700745</ele>
        <time>2012-02-29T14:05:02Z</time>
      </trkpt>
      <trkpt lat="47.20937" lon="6.00968">
        <ele>421.917755</ele>
        <time>2012-02-29T14:05:08Z</time>
      </trkpt>
      <trkpt lat="47.20931" lon="6.00948">
        <ele>422.322968</ele>
        <time>2012-02-29T14:05:27Z</time>
      </trkpt>
      <trkpt lat="47.20931" lon="6.00947">
        <ele>422.327515</ele>
        <time>2012-02-29T14:05:45Z</time>
      </trkpt>
      <trkpt lat="47.20932" lon="6.00945">
        <ele>422.470184</ele>
        <time>2012-02-29T14:06:13Z</time>
      </trkpt>
      <trkpt lat="47.20932" lon="6.00945">
        <ele>422.470184</ele>
        <time>2012-02-29T14:06:36Z</time>
      </trkpt>
      <trkpt lat="47.20932" lon="6.00945">
        <ele>422.470184</ele>
        <time>2012-02-29T14:06:49Z</time>
      </trkpt>
      <trkpt lat="47.20932" lon="6.00945">
        <ele>422.476563</ele>
        <time>2012-02-29T14:07:19Z</time>
      </trkpt>
      <trkpt lat="47.20932" lon="6.00945">
        <ele>422.484253</ele>
        <time>2012-02-29T14:07:44Z</time>
      </trkpt>
      <trkpt lat="47.20932" lon="6.00944">
        <ele>422.521271</ele>
        <time>2012-02-29T14:08:17Z</time>
      </trkpt>
      <trkpt lat="47.20932" lon="6.00944">
        <ele>422.521271</ele>
        <time>2012-02-29T14:08:37Z</time>
      </trkpt>
      <trkpt lat="47.20932" lon="6.00944">
        <ele>422.522491</ele>
        <time>2012-02-29T14:08:53Z</time>
      </trkpt>
      <trkpt lat="47.20932" lon="6.00944">
        <ele>422.522491</ele>
        <time>2012-02-29T14:09:24Z</time>
      </trkpt>
      <trkpt lat="47.20932" lon="6.00944">
        <ele>422.507751</ele>
        <time>2012-02-29T14:09:58Z</time>
      </trkpt>
      <trkpt lat="47.20932" lon="6.00943">
        <ele>422.515228</ele>
        <time>2012-02-29T14:10:32Z</time>
      </trkpt>
      <trkpt lat="47.20932" lon="6.00943">
        <ele>422.542755</ele>
        <time>2012-02-29T14:11:01Z</time>
      </trkpt>
      <trkpt lat="47.20932" lon="6.00947">
        <ele>422.417603</ele>
        <time>2012-02-29T14:11:14Z</time>
      </trkpt>
      <trkpt lat="47.20933" lon="6.00949">
        <ele>422.377594</ele>
        <time>2012-02-29T14:11:18Z</time>
      </trkpt>
      <trkpt lat="47.20935" lon="6.00957">
        <ele>422.197784</ele>
        <time>2012-02-29T14:11:23Z</time>
      </trkpt>
      <trkpt lat="47.20935" lon="6.0096">
        <ele>422.120728</ele>
        <time>2012-02-29T14:11:25Z</time>
      </trkpt>
      <trkpt lat="47.20936" lon="6.00972">
        <ele>421.745789</ele>
        <time>2012-02-29T14:11:33Z</time>
      </trkpt>
      <trkpt lat="47.20937" lon="6.00976">
        <ele>421.611816</ele>
        <time>2012-02-29T14:11:36Z</time>
      </trkpt>
      <trkpt lat="47.2094" lon="6.00985">
        <ele>421.451508</ele>
        <time>2012-02-29T14:11:42Z</time>
      </trkpt>
      <trkpt lat="47.20949" lon="6.01009">
        <ele>420.852173</ele>
        <time>2012-02-29T14:11:59Z</time>
      </trkpt>
      <trkpt lat="47.20949" lon="6.01012">
        <ele>420.764771</ele>
        <time>2012-02-29T14:12:01Z</time>
      </trkpt>
      <trkpt lat="47.20952" lon="6.01018">
        <ele>420.625641</ele>
        <time>2012-02-29T14:12:05Z</time>
      </trkpt>
      <trkpt lat="47.20955" lon="6.01026">
        <ele>420.383301</ele>
        <time>2012-02-29T14:12:11Z</time>
      </trkpt>
      <trkpt lat="47.20963" lon="6.01034">
        <ele>420.329803</ele>
        <time>2012-02-29T14:12:20Z</time>
      </trkpt>
      <trkpt lat="47.20965" lon="6.0104">
        <ele>420.097656</ele>
        <time>2012-02-29T14:12:25Z</time>
      </trkpt>
      <trkpt lat="47.20967" lon="6.01044">
        <ele>420.010742</ele>
        <time>2012-02-29T14:12:28Z</time>
      </trkpt>
      <trkpt lat="47.2098" lon="6.01067">
        <ele>419.192291</ele>
        <time>2012-02-29T14:12:45Z</time>
      </trkpt>
      <trkpt lat="47.20982" lon="6.01074">
        <ele>418.866211</ele>
        <time>2012-02-29T14:12:49Z</time>
      </trkpt>
      <trkpt lat="47.20996" lon="6.01105">
        <ele>418.292572</ele>
        <time>2012-02-29T14:13:10Z</time>
      </trkpt>
      <trkpt lat="47.21006" lon="6.0113">
        <ele>418.021729</ele>
        <time>2012-02-29T14:13:27Z</time>
      </trkpt>
      <trkpt lat="47.21013" lon="6.0116">
        <ele>417.880005</ele>
        <time>2012-02-29T14:13:45Z</time>
      </trkpt>
      <trkpt lat="47.21014" lon="6.0117">
        <ele>417.869385</ele>
        <time>2012-02-29T14:13:51Z</time>
      </trkpt>
      <trkpt lat="47.21021" lon="6.012">
        <ele>417.825378</ele>
        <time>2012-02-29T14:14:10Z</time>
      </trkpt>
      <trkpt lat="47.21022" lon="6.01204">
        <ele>417.806641</ele>
        <time>2012-02-29T14:14:12Z</time>
      </trkpt>
      <trkpt lat="47.21023" lon="6.01211">
        <ele>417.787323</ele>
        <time>2012-02-29T14:14:17Z</time>
      </trkpt>
      <trkpt lat="47.21024" lon="6.01218">
        <ele>418.078857</ele>
        <time>2012-02-29T14:14:21Z</time>
      </trkpt>
      <trkpt lat="47.21029" lon="6.0124">
        <ele>419.172363</ele>
        <time>2012-02-29T14:14:38Z</time>
      </trkpt>
      <trkpt lat="47.21029" lon="6.01244">
        <ele>419.34729</ele>
        <time>2012-02-29T14:14:40Z</time>
      </trkpt>
      <trkpt lat="47.2103" lon="6.01253">
        <ele>419.803223</ele>
        <time>2012-02-29T14:14:48Z</time>
      </trkpt>
      <trkpt lat="47.21026" lon="6.01257">
        <ele>419.829834</ele>
        <time>2012-02-29T14:14:56Z</time>
      </trkpt>
      <trkpt lat="47.21022" lon="6.01263">
        <ele>419.960327</ele>
        <time>2012-02-29T14:15:00Z</time>
      </trkpt>
      <trkpt lat="47.21009" lon="6.01285">
        <ele>420.547363</ele>
        <time>2012-02-29T14:15:16Z</time>
      </trkpt>
      <trkpt lat="47.20998" lon="6.01304">
        <ele>421.496948</ele>
        <time>2012-02-29T14:15:32Z</time>
      </trkpt>
      <trkpt lat="47.20991" lon="6.01314">
        <ele>422.088135</ele>
        <time>2012-02-29T14:15:40Z</time>
      </trkpt>
      <trkpt lat="47.20971" lon="6.01318">
        <ele>422.887024</ele>
        <time>2012-02-29T14:15:56Z</time>
      </trkpt>
      <trkpt lat="47.20959" lon="6.01317">
        <ele>423.332794</ele>
        <time>2012-02-29T14:16:05Z</time>
      </trkpt>
      <trkpt lat="47.20952" lon="6.01312">
        <ele>423.055908</ele>
        <time>2012-02-29T14:16:10Z</time>
      </trkpt>
      <trkpt lat="47.20934" lon="6.01302">
        <ele>422.789673</ele>
        <time>2012-02-29T14:16:26Z</time>
      </trkpt>
      <trkpt lat="47.20915" lon="6.01293">
        <ele>423.345734</ele>
        <time>2012-02-29T14:16:43Z</time>
      </trkpt>
      <trkpt lat="47.20912" lon="6.0129">
        <ele>423.28241</ele>
        <time>2012-02-29T14:16:46Z</time>
      </trkpt>
      <trkpt lat="47.20905" lon="6.01285">
        <ele>423.00119</ele>
        <time>2012-02-29T14:16:53Z</time>
      </trkpt>
      <trkpt lat="47.209" lon="6.0128">
        <ele>422.646606</ele>
        <time>2012-02-29T14:16:58Z</time>
      </trkpt>
      <trkpt lat="47.20883" lon="6.01268">
        <ele>421.71933</ele>
        <time>2012-02-29T14:17:14Z</time>
      </trkpt>
      <trkpt lat="47.20878" lon="6.01267">
        <ele>421.813354</ele>
        <time>2012-02-29T14:17:21Z</time>
      </trkpt>
      <trkpt lat="47.20868" lon="6.01269">
        <ele>422.548584</ele>
        <time>2012-02-29T14:17:36Z</time>
      </trkpt>
      <trkpt lat="47.20866" lon="6.01273">
        <ele>423.050995</ele>
        <time>2012-02-29T14:17:41Z</time>
      </trkpt>
      <trkpt lat="47.20852" lon="6.01283">
        <ele>424.057098</ele>
        <time>2012-02-29T14:17:54Z</time>
      </trkpt>
      <trkpt lat="47.2085" lon="6.01283">
        <ele>423.67041</ele>
        <time>2012-02-29T14:17:56Z</time>
      </trkpt>
      <trkpt lat="47.20834" lon="6.01274">
        <ele>418.460907</ele>
        <time>2012-02-29T14:18:11Z</time>
      </trkpt>
      <trkpt lat="47.2083" lon="6.01268">
        <ele>417.156738</ele>
        <time>2012-02-29T14:18:16Z</time>
      </trkpt>
      <trkpt lat="47.20826" lon="6.01261">
        <ele>415.790161</ele>
        <time>2012-02-29T14:18:21Z</time>
      </trkpt>
      <trkpt lat="47.2082" lon="6.01249">
        <ele>413.33551</ele>
        <time>2012-02-29T14:18:30Z</time>
      </trkpt>
      <trkpt lat="47.20814" lon="6.01234">
        <ele>410.629639</ele>
        <time>2012-02-29T14:18:40Z</time>
      </trkpt>
      <trkpt lat="47.20804" lon="6.01214">
        <ele>407.485687</ele>
        <time>2012-02-29T14:18:55Z</time>
      </trkpt>
      <trkpt lat="47.20801" lon="6.0121">
        <ele>406.934265</ele>
        <time>2012-02-29T14:18:59Z</time>
      </trkpt>
      <trkpt lat="47.20792" lon="6.01203">
        <ele>405.643341</ele>
        <time>2012-02-29T14:19:10Z</time>
      </trkpt>
      <trkpt lat="47.2079" lon="6.01201">
        <ele>405.393799</ele>
        <time>2012-02-29T14:19:12Z</time>
      </trkpt>
      <trkpt lat="47.20775" lon="6.0119">
        <ele>403.531067</ele>
        <time>2012-02-29T14:19:27Z</time>
      </trkpt>
      <trkpt lat="47.20766" lon="6.01189">
        <ele>402.725861</ele>
        <time>2012-02-29T14:19:38Z</time>
      </trkpt>
      <trkpt lat="47.20764" lon="6.01192">
        <ele>402.7948</ele>
        <time>2012-02-29T14:19:42Z</time>
      </trkpt>
      <trkpt lat="47.20756" lon="6.01211">
        <ele>400.843506</ele>
        <time>2012-02-29T14:19:57Z</time>
      </trkpt>
      <trkpt lat="47.20749" lon="6.01228">
        <ele>398.572998</ele>
        <time>2012-02-29T14:20:09Z</time>
      </trkpt>
      <trkpt lat="47.20748" lon="6.01232">
        <ele>398.111908</ele>
        <time>2012-02-29T14:20:12Z</time>
      </trkpt>
      <trkpt lat="47.20745" lon="6.01246">
        <ele>396.403229</ele>
        <time>2012-02-29T14:20:21Z</time>
      </trkpt>
      <trkpt lat="47.20743" lon="6.01252">
        <ele>395.589294</ele>
        <time>2012-02-29T14:20:25Z</time>
      </trkpt>
      <trkpt lat="47.20748" lon="6.01283">
        <ele>392.194183</ele>
        <time>2012-02-29T14:20:44Z</time>
      </trkpt>
      <trkpt lat="47.20756" lon="6.01308">
        <ele>390.335785</ele>
        <time>2012-02-29T14:21:02Z</time>
      </trkpt>
      <trkpt lat="47.20758" lon="6.01312">
        <ele>390.212036</ele>
        <time>2012-02-29T14:21:05Z</time>
      </trkpt>
      <trkpt lat="47.20765" lon="6.01335">
        <ele>388.838745</ele>
        <time>2012-02-29T14:21:21Z</time>
      </trkpt>
      <trkpt lat="47.20772" lon="6.01356">
        <ele>386.602173</ele>
        <time>2012-02-29T14:21:34Z</time>
      </trkpt>
      <trkpt lat="47.20774" lon="6.01372">
        <ele>383.634003</ele>
        <time>2012-02-29T14:21:44Z</time>
      </trkpt>
      <trkpt lat="47.2078" lon="6.01382">
        <ele>383.083588</ele>
        <time>2012-02-29T14:21:54Z</time>
      </trkpt>
      <trkpt lat="47.20794" lon="6.01404">
        <ele>382.651703</ele>
        <time>2012-02-29T14:22:13Z</time>
      </trkpt>
      <trkpt lat="47.20805" lon="6.01415">
        <ele>384.786804</ele>
        <time>2012-02-29T14:22:23Z</time>
      </trkpt>
      <trkpt lat="47.20808" lon="6.01418">
        <ele>386.269531</ele>
        <time>2012-02-29T14:22:26Z</time>
      </trkpt>
      <trkpt lat="47.20811" lon="6.01426">
        <ele>386.443237</ele>
        <time>2012-02-29T14:22:32Z</time>
      </trkpt>
      <trkpt lat="47.20814" lon="6.01438">
        <ele>385.882019</ele>
        <time>2012-02-29T14:22:40Z</time>
      </trkpt>
      <trkpt lat="47.20816" lon="6.01441">
        <ele>386.418549</ele>
        <time>2012-02-29T14:22:42Z</time>
      </trkpt>
      <trkpt lat="47.20817" lon="6.01445">
        <ele>385.875214</ele>
        <time>2012-02-29T14:22:44Z</time>
      </trkpt>
      <trkpt lat="47.20821" lon="6.01453">
        <ele>385.985504</ele>
        <time>2012-02-29T14:22:50Z</time>
      </trkpt>
      <trkpt lat="47.20821" lon="6.01459">
        <ele>384.860809</ele>
        <time>2012-02-29T14:22:54Z</time>
      </trkpt>
      <trkpt lat="47.20822" lon="6.01462">
        <ele>384.885895</ele>
        <time>2012-02-29T14:22:56Z</time>
      </trkpt>
      <trkpt lat="47.20823" lon="6.01471">
        <ele>385.330505</ele>
        <time>2012-02-29T14:23:01Z</time>
      </trkpt>
      <trkpt lat="47.20824" lon="6.01478">
        <ele>385.393677</ele>
        <time>2012-02-29T14:23:05Z</time>
      </trkpt>
      <trkpt lat="47.20824" lon="6.01489">
        <ele>384.777161</ele>
        <time>2012-02-29T14:23:11Z</time>
      </trkpt>
      <trkpt lat="47.20821" lon="6.01516">
        <ele>382.655792</ele>
        <time>2012-02-29T14:23:28Z</time>
      </trkpt>
      <trkpt lat="47.2082" lon="6.01529">
        <ele>382.205017</ele>
        <time>2012-02-29T14:23:35Z</time>
      </trkpt>
      <trkpt lat="47.20819" lon="6.01538">
        <ele>382.237488</ele>
        <time>2012-02-29T14:23:42Z</time>
      </trkpt>
      <trkpt lat="47.20818" lon="6.01549">
        <ele>382.144989</ele>
        <time>2012-02-29T14:23:49Z</time>
      </trkpt>
      <trkpt lat="47.20815" lon="6.01576">
        <ele>382.202484</ele>
        <time>2012-02-29T14:24:06Z</time>
      </trkpt>
      <trkpt lat="47.20812" lon="6.01604">
        <ele>379.761108</ele>
        <time>2012-02-29T14:24:24Z</time>
      </trkpt>
      <trkpt lat="47.20813" lon="6.01608">
        <ele>379.251556</ele>
        <time>2012-02-29T14:24:27Z</time>
      </trkpt>
      <trkpt lat="47.2081" lon="6.01623">
        <ele>375.742035</ele>
        <time>2012-02-29T14:24:37Z</time>
      </trkpt>
      <trkpt lat="47.20811" lon="6.01628">
        <ele>374.966705</ele>
        <time>2012-02-29T14:24:40Z</time>
      </trkpt>
      <trkpt lat="47.2081" lon="6.01639">
        <ele>372.917999</ele>
        <time>2012-02-29T14:24:47Z</time>
      </trkpt>
      <trkpt lat="47.20811" lon="6.01664">
        <ele>368.407104</ele>
        <time>2012-02-29T14:25:01Z</time>
      </trkpt>
      <trkpt lat="47.20811" lon="6.0167">
        <ele>367.460663</ele>
        <time>2012-02-29T14:25:04Z</time>
      </trkpt>
      <trkpt lat="47.20813" lon="6.01683">
        <ele>365.143005</ele>
        <time>2012-02-29T14:25:12Z</time>
      </trkpt>
      <trkpt lat="47.20815" lon="6.01699">
        <ele>362.287903</ele>
        <time>2012-02-29T14:25:21Z</time>
      </trkpt>
      <trkpt lat="47.20816" lon="6.01704">
        <ele>361.451996</ele>
        <time>2012-02-29T14:25:24Z</time>
      </trkpt>
      <trkpt lat="47.20819" lon="6.0171">
        <ele>360.686401</ele>
        <time>2012-02-29T14:25:29Z</time>
      </trkpt>
      <trkpt lat="47.20825" lon="6.01722">
        <ele>359.354401</ele>
        <time>2012-02-29T14:25:38Z</time>
      </trkpt>
      <trkpt lat="47.20837" lon="6.01746">
        <ele>360.263062</ele>
        <time>2012-02-29T14:25:56Z</time>
      </trkpt>
      <trkpt lat="47.20843" lon="6.01771">
        <ele>360.708038</ele>
        <time>2012-02-29T14:26:13Z</time>
      </trkpt>
      <trkpt lat="47.20847" lon="6.01782">
        <ele>361.121246</ele>
        <time>2012-02-29T14:26:20Z</time>
      </trkpt>
      <trkpt lat="47.20846" lon="6.01793">
        <ele>360.417419</ele>
        <time>2012-02-29T14:26:27Z</time>
      </trkpt>
      <trkpt lat="47.2084" lon="6.0182">
        <ele>360.009949</ele>
        <time>2012-02-29T14:26:44Z</time>
      </trkpt>
      <trkpt lat="47.20838" lon="6.01828">
        <ele>359.856812</ele>
        <time>2012-02-29T14:26:49Z</time>
      </trkpt>
      <trkpt lat="47.20835" lon="6.01859">
        <ele>360.236237</ele>
        <time>2012-02-29T14:27:06Z</time>
      </trkpt>
      <trkpt lat="47.20827" lon="6.01886">
        <ele>356.418427</ele>
        <time>2012-02-29T14:27:23Z</time>
      </trkpt>
      <trkpt lat="47.20819" lon="6.01896">
        <ele>353.23764</ele>
        <time>2012-02-29T14:27:35Z</time>
      </trkpt>
      <trkpt lat="47.20813" lon="6.01895">
        <ele>351.453705</ele>
        <time>2012-02-29T14:27:39Z</time>
      </trkpt>
      <trkpt lat="47.20809" lon="6.01894">
        <ele>350.480011</ele>
        <time>2012-02-29T14:27:41Z</time>
      </trkpt>
      <trkpt lat="47.20801" lon="6.01863">
        <ele>349.791504</ele>
        <time>2012-02-29T14:28:00Z</time>
      </trkpt>
      <trkpt lat="47.20798" lon="6.01845">
        <ele>348.934753</ele>
        <time>2012-02-29T14:28:11Z</time>
      </trkpt>
      <trkpt lat="47.20794" lon="6.0183">
        <ele>347.58429</ele>
        <time>2012-02-29T14:28:20Z</time>
      </trkpt>
      <trkpt lat="47.20789" lon="6.0182">
        <ele>345.821198</ele>
        <time>2012-02-29T14:28:27Z</time>
      </trkpt>
      <trkpt lat="47.20778" lon="6.01803">
        <ele>343.027557</ele>
        <time>2012-02-29T14:28:41Z</time>
      </trkpt>
      <trkpt lat="47.20771" lon="6.01798">
        <ele>341.250854</ele>
        <time>2012-02-29T14:28:48Z</time>
      </trkpt>
      <trkpt lat="47.20767" lon="6.01788">
        <ele>340.219757</ele>
        <time>2012-02-29T14:28:54Z</time>
      </trkpt>
      <trkpt lat="47.20756" lon="6.01754">
        <ele>339.852509</ele>
        <time>2012-02-29T14:29:14Z</time>
      </trkpt>
      <trkpt lat="47.20756" lon="6.01753">
        <ele>339.861267</ele>
        <time>2012-02-29T14:29:15Z</time>
      </trkpt>
      <trkpt lat="47.2075" lon="6.01736">
        <ele>339.540009</ele>
        <time>2012-02-29T14:29:26Z</time>
      </trkpt>
      <trkpt lat="47.20749" lon="6.01731">
        <ele>339.713745</ele>
        <time>2012-02-29T14:29:30Z</time>
      </trkpt>
      <trkpt lat="47.20744" lon="6.0172">
        <ele>339.018829</ele>
        <time>2012-02-29T14:29:37Z</time>
      </trkpt>
      <trkpt lat="47.20738" lon="6.01703">
        <ele>337.640289</ele>
        <time>2012-02-29T14:29:48Z</time>
      </trkpt>
      <trkpt lat="47.20726" lon="6.01666">
        <ele>335.163818</ele>
        <time>2012-02-29T14:30:12Z</time>
      </trkpt>
      <trkpt lat="47.20717" lon="6.01637">
        <ele>333.829803</ele>
        <time>2012-02-29T14:30:31Z</time>
      </trkpt>
      <trkpt lat="47.20709" lon="6.01615">
        <ele>333.179688</ele>
        <time>2012-02-29T14:30:46Z</time>
      </trkpt>
      <trkpt lat="47.20705" lon="6.01606">
        <ele>332.417938</ele>
        <time>2012-02-29T14:30:52Z</time>
      </trkpt>
      <trkpt lat="47.20696" lon="6.01591">
        <ele>331.118286</ele>
        <time>2012-02-29T14:31:03Z</time>
      </trkpt>
      <trkpt lat="47.20681" lon="6.01558">
        <ele>327.003937</ele>
        <time>2012-02-29T14:31:27Z</time>
      </trkpt>
      <trkpt lat="47.20667" lon="6.01535">
        <ele>322.784027</ele>
        <time>2012-02-29T14:31:45Z</time>
      </trkpt>
      <trkpt lat="47.20666" lon="6.01534">
        <ele>322.490204</ele>
        <time>2012-02-29T14:31:46Z</time>
      </trkpt>
      <trkpt lat="47.20651" lon="6.01517">
        <ele>319.992096</ele>
        <time>2012-02-29T14:32:03Z</time>
      </trkpt>
      <trkpt lat="47.20632" lon="6.01503">
        <ele>316.820313</ele>
        <time>2012-02-29T14:32:22Z</time>
      </trkpt>
      <trkpt lat="47.20619" lon="6.01496">
        <ele>314.443787</ele>
        <time>2012-02-29T14:32:40Z</time>
      </trkpt>
      <trkpt lat="47.20619" lon="6.01495">
        <ele>314.436066</ele>
        <time>2012-02-29T14:33:07Z</time>
      </trkpt>
      <trkpt lat="47.20619" lon="6.01494">
        <ele>314.409515</ele>
        <time>2012-02-29T14:33:41Z</time>
      </trkpt>
      <trkpt lat="47.20619" lon="6.01495">
        <ele>314.419739</ele>
        <time>2012-02-29T14:34:11Z</time>
      </trkpt>
      <trkpt lat="47.20617" lon="6.01494">
        <ele>314.358612</ele>
        <time>2012-02-29T14:34:22Z</time>
      </trkpt>
      <trkpt lat="47.20614" lon="6.01488">
        <ele>314.112335</ele>
        <time>2012-02-29T14:34:26Z</time>
      </trkpt>
      <trkpt lat="47.2061" lon="6.01479">
        <ele>313.629059</ele>
        <time>2012-02-29T14:34:32Z</time>
      </trkpt>
      <trkpt lat="47.20608" lon="6.01473">
        <ele>313.318115</ele>
        <time>2012-02-29T14:34:36Z</time>
      </trkpt>
      <trkpt lat="47.20605" lon="6.01461">
        <ele>312.613373</ele>
        <time>2012-02-29T14:34:44Z</time>
      </trkpt>
      <trkpt lat="47.20602" lon="6.01453">
        <ele>312.045624</ele>
        <time>2012-02-29T14:34:50Z</time>
      </trkpt>
      <trkpt lat="47.20595" lon="6.01434">
        <ele>311.219543</ele>
        <time>2012-02-29T14:35:03Z</time>
      </trkpt>
      <trkpt lat="47.20591" lon="6.01427">
        <ele>310.870483</ele>
        <time>2012-02-29T14:35:08Z</time>
      </trkpt>
      <trkpt lat="47.20578" lon="6.014">
        <ele>308.711304</ele>
        <time>2012-02-29T14:35:27Z</time>
      </trkpt>
      <trkpt lat="47.20563" lon="6.01363">
        <ele>309.159515</ele>
        <time>2012-02-29T14:35:50Z</time>
      </trkpt>
      <trkpt lat="47.2055" lon="6.01329">
        <ele>310.343964</ele>
        <time>2012-02-29T14:36:12Z</time>
      </trkpt>
      <trkpt lat="47.20541" lon="6.01322">
        <ele>310.125549</ele>
        <time>2012-02-29T14:36:28Z</time>
      </trkpt>
      <trkpt lat="47.20539" lon="6.01332">
        <ele>309.827881</ele>
        <time>2012-02-29T14:36:35Z</time>
      </trkpt>
      <trkpt lat="47.20534" lon="6.01346">
        <ele>309.450165</ele>
        <time>2012-02-29T14:36:45Z</time>
      </trkpt>
      <trkpt lat="47.20529" lon="6.01358">
        <ele>309.282257</ele>
        <time>2012-02-29T14:37:02Z</time>
      </trkpt>
      <trkpt lat="47.20528" lon="6.01361">
        <ele>309.257813</ele>
        <time>2012-02-29T14:37:05Z</time>
      </trkpt>
      <trkpt lat="47.20519" lon="6.0139">
        <ele>309.924866</ele>
        <time>2012-02-29T14:37:23Z</time>
      </trkpt>
      <trkpt lat="47.20514" lon="6.01411">
        <ele>310.992737</ele>
        <time>2012-02-29T14:37:37Z</time>
      </trkpt>
      <trkpt lat="47.20509" lon="6.01435">
        <ele>312.281738</ele>
        <time>2012-02-29T14:37:52Z</time>
      </trkpt>
      <trkpt lat="47.20507" lon="6.01445">
        <ele>313.463684</ele>
        <time>2012-02-29T14:37:59Z</time>
      </trkpt>
      <trkpt lat="47.20504" lon="6.01463">
        <ele>316.55957</ele>
        <time>2012-02-29T14:38:11Z</time>
      </trkpt>
      <trkpt lat="47.20503" lon="6.01485">
        <ele>320.149048</ele>
        <time>2012-02-29T14:38:27Z</time>
      </trkpt>
      <trkpt lat="47.20515" lon="6.01495">
        <ele>320.124756</ele>
        <time>2012-02-29T14:38:43Z</time>
      </trkpt>
      <trkpt lat="47.20529" lon="6.01504">
        <ele>319.563354</ele>
        <time>2012-02-29T14:38:58Z</time>
      </trkpt>
      <trkpt lat="47.20541" lon="6.01518">
        <ele>320.531677</ele>
        <time>2012-02-29T14:39:14Z</time>
      </trkpt>
      <trkpt lat="47.20547" lon="6.01524">
        <ele>320.850006</ele>
        <time>2012-02-29T14:39:20Z</time>
      </trkpt>
      <trkpt lat="47.20559" lon="6.0154">
        <ele>321.303741</ele>
        <time>2012-02-29T14:39:35Z</time>
      </trkpt>
      <trkpt lat="47.20563" lon="6.01549">
        <ele>322.004639</ele>
        <time>2012-02-29T14:39:42Z</time>
      </trkpt>
      <trkpt lat="47.20574" lon="6.01571">
        <ele>323.087433</ele>
        <time>2012-02-29T14:40:00Z</time>
      </trkpt>
      <trkpt lat="47.20582" lon="6.01593">
        <ele>323.685455</ele>
        <time>2012-02-29T14:40:15Z</time>
      </trkpt>
      <trkpt lat="47.20588" lon="6.01606">
        <ele>323.518951</ele>
        <time>2012-02-29T14:40:27Z</time>
      </trkpt>
      <trkpt lat="47.20596" lon="6.0163">
        <ele>323.355988</ele>
        <time>2012-02-29T14:40:42Z</time>
      </trkpt>
      <trkpt lat="47.20598" lon="6.01654">
        <ele>323.879272</ele>
        <time>2012-02-29T14:40:56Z</time>
      </trkpt>
      <trkpt lat="47.20599" lon="6.01679">
        <ele>324.394012</ele>
        <time>2012-02-29T14:41:12Z</time>
      </trkpt>
      <trkpt lat="47.206" lon="6.01682">
        <ele>324.332489</ele>
        <time>2012-02-29T14:41:14Z</time>
      </trkpt>
      <trkpt lat="47.20601" lon="6.01698">
        <ele>324.354431</ele>
        <time>2012-02-29T14:41:24Z</time>
      </trkpt>
      <trkpt lat="47.20602" lon="6.01704">
        <ele>324.485321</ele>
        <time>2012-02-29T14:41:29Z</time>
      </trkpt>
      <trkpt lat="47.20603" lon="6.01709">
        <ele>324.291412</ele>
        <time>2012-02-29T14:41:32Z</time>
      </trkpt>
      <trkpt lat="47.20604" lon="6.01733">
        <ele>326.290009</ele>
        <time>2012-02-29T14:41:47Z</time>
      </trkpt>
      <trkpt lat="47.20604" lon="6.01735">
        <ele>326.298553</ele>
        <time>2012-02-29T14:41:51Z</time>
      </trkpt>
      <trkpt lat="47.20603" lon="6.0175">
        <ele>328.125214</ele>
        <time>2012-02-29T14:42:04Z</time>
      </trkpt>
      <trkpt lat="47.20593" lon="6.01767">
        <ele>333.830658</ele>
        <time>2012-02-29T14:42:19Z</time>
      </trkpt>
      <trkpt lat="47.20586" lon="6.01763">
        <ele>335.667236</ele>
        <time>2012-02-29T14:42:34Z</time>
      </trkpt>
      <trkpt lat="47.20586" lon="6.01755">
        <ele>335.136078</ele>
        <time>2012-02-29T14:42:42Z</time>
      </trkpt>
      <trkpt lat="47.20582" lon="6.01734">
        <ele>334.119568</ele>
        <time>2012-02-29T14:42:56Z</time>
      </trkpt>
      <trkpt lat="47.20575" lon="6.01708">
        <ele>333.61264</ele>
        <time>2012-02-29T14:43:16Z</time>
      </trkpt>
      <trkpt lat="47.20568" lon="6.01694">
        <ele>334.85321</ele>
        <time>2012-02-29T14:43:25Z</time>
      </trkpt>
      <trkpt lat="47.20563" lon="6.01683">
        <ele>336.435486</ele>
        <time>2012-02-29T14:43:32Z</time>
      </trkpt>
      <trkpt lat="47.20551" lon="6.01664">
        <ele>339.623474</ele>
        <time>2012-02-29T14:43:48Z</time>
      </trkpt>
      <trkpt lat="47.20542" lon="6.01652">
        <ele>342.344727</ele>
        <time>2012-02-29T14:44:01Z</time>
      </trkpt>
      <trkpt lat="47.20531" lon="6.01655">
        <ele>346.760498</ele>
        <time>2012-02-29T14:44:16Z</time>
      </trkpt>
      <trkpt lat="47.20529" lon="6.01657">
        <ele>347.712921</ele>
        <time>2012-02-29T14:44:20Z</time>
      </trkpt>
      <trkpt lat="47.2052" lon="6.0166">
        <ele>350.11499</ele>
        <time>2012-02-29T14:44:35Z</time>
      </trkpt>
      <trkpt lat="47.20509" lon="6.01672">
        <ele>351.762512</ele>
        <time>2012-02-29T14:44:48Z</time>
      </trkpt>
      <trkpt lat="47.20502" lon="6.01692">
        <ele>353.839996</ele>
        <time>2012-02-29T14:45:03Z</time>
      </trkpt>
      <trkpt lat="47.20507" lon="6.01694">
        <ele>353.769989</ele>
        <time>2012-02-29T14:45:18Z</time>
      </trkpt>
      <trkpt lat="47.20515" lon="6.01693">
        <ele>353.290009</ele>
        <time>2012-02-29T14:45:29Z</time>
      </trkpt>
      <trkpt lat="47.20516" lon="6.01694">
        <ele>353.347504</ele>
        <time>2012-02-29T14:45:32Z</time>
      </trkpt>
      <trkpt lat="47.20519" lon="6.01696">
        <ele>353.387512</ele>
        <time>2012-02-29T14:45:34Z</time>
      </trkpt>
      <trkpt lat="47.20524" lon="6.01701">
        <ele>353.236359</ele>
        <time>2012-02-29T14:45:39Z</time>
      </trkpt>
      <trkpt lat="47.20527" lon="6.01705">
        <ele>352.253082</ele>
        <time>2012-02-29T14:45:42Z</time>
      </trkpt>
      <trkpt lat="47.20529" lon="6.01708">
        <ele>351.842621</ele>
        <time>2012-02-29T14:45:44Z</time>
      </trkpt>
      <trkpt lat="47.20536" lon="6.01718">
        <ele>349.810638</ele>
        <time>2012-02-29T14:45:53Z</time>
      </trkpt>
      <trkpt lat="47.20538" lon="6.01723">
        <ele>349.527191</ele>
        <time>2012-02-29T14:45:56Z</time>
      </trkpt>
      <trkpt lat="47.2054" lon="6.01727">
        <ele>349.286255</ele>
        <time>2012-02-29T14:45:58Z</time>
      </trkpt>
      <trkpt lat="47.20541" lon="6.01732">
        <ele>349.258972</ele>
        <time>2012-02-29T14:46:01Z</time>
      </trkpt>
      <trkpt lat="47.20544" lon="6.01743">
        <ele>349.544434</ele>
        <time>2012-02-29T14:46:09Z</time>
      </trkpt>
      <trkpt lat="47.20545" lon="6.0175">
        <ele>349.855957</ele>
        <time>2012-02-29T14:46:13Z</time>
      </trkpt>
      <trkpt lat="47.20551" lon="6.01763">
        <ele>348.895325</ele>
        <time>2012-02-29T14:46:22Z</time>
      </trkpt>
      <trkpt lat="47.20552" lon="6.01771">
        <ele>349.506012</ele>
        <time>2012-02-29T14:46:27Z</time>
      </trkpt>
      <trkpt lat="47.20556" lon="6.01791">
        <ele>350.588501</ele>
        <time>2012-02-29T14:46:42Z</time>
      </trkpt>
      <trkpt lat="47.2056" lon="6.01815">
        <ele>351.961365</ele>
        <time>2012-02-29T14:46:57Z</time>
      </trkpt>
      <trkpt lat="47.20561" lon="6.01837">
        <ele>354.262207</ele>
        <time>2012-02-29T14:47:12Z</time>
      </trkpt>
      <trkpt lat="47.20564" lon="6.01858">
        <ele>355.666199</ele>
        <time>2012-02-29T14:47:28Z</time>
      </trkpt>
      <trkpt lat="47.20563" lon="6.01861">
        <ele>356.131287</ele>
        <time>2012-02-29T14:47:30Z</time>
      </trkpt>
      <trkpt lat="47.20563" lon="6.01876">
        <ele>357.494354</ele>
        <time>2012-02-29T14:47:42Z</time>
      </trkpt>
      <trkpt lat="47.20562" lon="6.01899">
        <ele>360.052216</ele>
        <time>2012-02-29T14:47:57Z</time>
      </trkpt>
      <trkpt lat="47.20563" lon="6.01902">
        <ele>360.203003</ele>
        <time>2012-02-29T14:47:59Z</time>
      </trkpt>
      <trkpt lat="47.20565" lon="6.0191">
        <ele>360.651245</ele>
        <time>2012-02-29T14:48:16Z</time>
      </trkpt>
      <trkpt lat="47.20565" lon="6.01913">
        <ele>360.977509</ele>
        <time>2012-02-29T14:48:18Z</time>
      </trkpt>
      <trkpt lat="47.20564" lon="6.01916">
        <ele>361.667511</ele>
        <time>2012-02-29T14:48:21Z</time>
      </trkpt>
      <trkpt lat="47.2055" lon="6.01916">
        <ele>365.10376</ele>
        <time>2012-02-29T14:48:36Z</time>
      </trkpt>
      <trkpt lat="47.20549" lon="6.01914">
        <ele>365.217499</ele>
        <time>2012-02-29T14:48:39Z</time>
      </trkpt>
      <trkpt lat="47.20539" lon="6.01893">
        <ele>365.665039</ele>
        <time>2012-02-29T14:48:53Z</time>
      </trkpt>
      <trkpt lat="47.20526" lon="6.01875">
        <ele>367.610046</ele>
        <time>2012-02-29T14:49:09Z</time>
      </trkpt>
      <trkpt lat="47.20515" lon="6.01873">
        <ele>370.018677</ele>
        <time>2012-02-29T14:49:20Z</time>
      </trkpt>
      <trkpt lat="47.20498" lon="6.01876">
        <ele>372.118439</ele>
        <time>2012-02-29T14:49:37Z</time>
      </trkpt>
      <trkpt lat="47.20488" lon="6.01881">
        <ele>373.81366</ele>
        <time>2012-02-29T14:49:49Z</time>
      </trkpt>
      <trkpt lat="47.20484" lon="6.01882">
        <ele>374.383606</ele>
        <time>2012-02-29T14:49:54Z</time>
      </trkpt>
      <trkpt lat="47.20482" lon="6.01883">
        <ele>374.719391</ele>
        <time>2012-02-29T14:49:56Z</time>
      </trkpt>
      <trkpt lat="47.20477" lon="6.01887">
        <ele>375.759857</ele>
        <time>2012-02-29T14:50:04Z</time>
      </trkpt>
      <trkpt lat="47.20472" lon="6.01892">
        <ele>377.001831</ele>
        <time>2012-02-29T14:50:11Z</time>
      </trkpt>
      <trkpt lat="47.20467" lon="6.01895">
        <ele>377.673035</ele>
        <time>2012-02-29T14:50:17Z</time>
      </trkpt>
      <trkpt lat="47.20464" lon="6.01898">
        <ele>378.146606</ele>
        <time>2012-02-29T14:50:20Z</time>
      </trkpt>
      <trkpt lat="47.20455" lon="6.01904">
        <ele>379.48291</ele>
        <time>2012-02-29T14:50:29Z</time>
      </trkpt>
      <trkpt lat="47.20451" lon="6.01905">
        <ele>379.756775</ele>
        <time>2012-02-29T14:50:31Z</time>
      </trkpt>
      <trkpt lat="47.20443" lon="6.01904">
        <ele>380.105621</ele>
        <time>2012-02-29T14:50:37Z</time>
      </trkpt>
      <trkpt lat="47.20438" lon="6.019">
        <ele>379.902283</ele>
        <time>2012-02-29T14:50:42Z</time>
      </trkpt>
      <trkpt lat="47.20432" lon="6.01896">
        <ele>379.670044</ele>
        <time>2012-02-29T14:50:48Z</time>
      </trkpt>
      <trkpt lat="47.20417" lon="6.01887">
        <ele>379.950104</ele>
        <time>2012-02-29T14:51:04Z</time>
      </trkpt>
      <trkpt lat="47.20415" lon="6.01886">
        <ele>380.006927</ele>
        <time>2012-02-29T14:51:06Z</time>
      </trkpt>
      <trkpt lat="47.2041" lon="6.01884">
        <ele>380.234375</ele>
        <time>2012-02-29T14:51:10Z</time>
      </trkpt>
      <trkpt lat="47.20394" lon="6.0188">
        <ele>381.460754</ele>
        <time>2012-02-29T14:51:26Z</time>
      </trkpt>
      <trkpt lat="47.2039" lon="6.0188">
        <ele>381.988708</ele>
        <time>2012-02-29T14:51:29Z</time>
      </trkpt>
      <trkpt lat="47.20376" lon="6.01876">
        <ele>383.168884</ele>
        <time>2012-02-29T14:51:42Z</time>
      </trkpt>
      <trkpt lat="47.20359" lon="6.01872">
        <ele>384.766602</ele>
        <time>2012-02-29T14:51:58Z</time>
      </trkpt>
      <trkpt lat="47.20351" lon="6.0187">
        <ele>385.423737</ele>
        <time>2012-02-29T14:52:05Z</time>
      </trkpt>
      <trkpt lat="47.20333" lon="6.01862">
        <ele>386.211243</ele>
        <time>2012-02-29T14:52:23Z</time>
      </trkpt>
      <trkpt lat="47.20328" lon="6.0186">
        <ele>386.448639</ele>
        <time>2012-02-29T14:52:29Z</time>
      </trkpt>
      <trkpt lat="47.20311" lon="6.01855">
        <ele>387.379547</ele>
        <time>2012-02-29T14:52:44Z</time>
      </trkpt>
      <trkpt lat="47.20288" lon="6.01853">
        <ele>389.262512</ele>
        <time>2012-02-29T14:53:04Z</time>
      </trkpt>
      <trkpt lat="47.2027" lon="6.01847">
        <ele>390.700012</ele>
        <time>2012-02-29T14:53:20Z</time>
      </trkpt>
      <trkpt lat="47.20249" lon="6.01836">
        <ele>391.537506</ele>
        <time>2012-02-29T14:53:41Z</time>
      </trkpt>
      <trkpt lat="47.20247" lon="6.01835">
        <ele>391.803741</ele>
        <time>2012-02-29T14:53:44Z</time>
      </trkpt>
      <trkpt lat="47.20243" lon="6.01834">
        <ele>392.251526</ele>
        <time>2012-02-29T14:53:47Z</time>
      </trkpt>
      <trkpt lat="47.20241" lon="6.01842">
        <ele>393.777954</ele>
        <time>2012-02-29T14:53:53Z</time>
      </trkpt>
      <trkpt lat="47.20241" lon="6.01849">
        <ele>394.716431</ele>
        <time>2012-02-29T14:53:58Z</time>
      </trkpt>
      <trkpt lat="47.20248" lon="6.01863">
        <ele>395.712494</ele>
        <time>2012-02-29T14:54:12Z</time>
      </trkpt>
      <trkpt lat="47.20248" lon="6.01863">
        <ele>395.712494</ele>
        <time>2012-02-29T14:54:28Z</time>
      </trkpt>
      <trkpt lat="47.20249" lon="6.01864">
        <ele>395.824982</ele>
        <time>2012-02-29T14:54:39Z</time>
      </trkpt>
      <trkpt lat="47.20259" lon="6.0188">
        <ele>396.962494</ele>
        <time>2012-02-29T14:54:53Z</time>
      </trkpt>
      <trkpt lat="47.20268" lon="6.01893">
        <ele>397.51001</ele>
        <time>2012-02-29T14:55:09Z</time>
      </trkpt>
      <trkpt lat="47.20276" lon="6.01904">
        <ele>397.875</ele>
        <time>2012-02-29T14:55:25Z</time>
      </trkpt>
      <trkpt lat="47.20284" lon="6.01917">
        <ele>398.380005</ele>
        <time>2012-02-29T14:55:41Z</time>
      </trkpt>
      <trkpt lat="47.20285" lon="6.01919">
        <ele>398.519989</ele>
        <time>2012-02-29T14:55:43Z</time>
      </trkpt>
      <trkpt lat="47.2029" lon="6.01927">
        <ele>398.929993</ele>
        <time>2012-02-29T14:55:49Z</time>
      </trkpt>
      <trkpt lat="47.20301" lon="6.01941">
        <ele>399.902222</ele>
        <time>2012-02-29T14:56:06Z</time>
      </trkpt>
      <trkpt lat="47.20309" lon="6.01951">
        <ele>400.717957</ele>
        <time>2012-02-29T14:56:17Z</time>
      </trkpt>
      <trkpt lat="47.20314" lon="6.01957">
        <ele>401.157593</ele>
        <time>2012-02-29T14:56:33Z</time>
      </trkpt>
      <trkpt lat="47.20317" lon="6.01961">
        <ele>401.411011</ele>
        <time>2012-02-29T14:56:47Z</time>
      </trkpt>
      <trkpt lat="47.20323" lon="6.01967">
        <ele>401.770203</ele>
        <time>2012-02-29T14:56:59Z</time>
      </trkpt>
      <trkpt lat="47.20323" lon="6.01968">
        <ele>401.880585</ele>
        <time>2012-02-29T14:57:18Z</time>
      </trkpt>
      <trkpt lat="47.20324" lon="6.0197">
        <ele>402.08255</ele>
        <time>2012-02-29T14:57:46Z</time>
      </trkpt>
      <trkpt lat="47.20325" lon="6.0197">
        <ele>402.036743</ele>
        <time>2012-02-29T14:58:16Z</time>
      </trkpt>
      <trkpt lat="47.20325" lon="6.0197">
        <ele>402.036743</ele>
        <time>2012-02-29T14:58:49Z</time>
      </trkpt>
      <trkpt lat="47.20325" lon="6.0197">
        <ele>402.012421</ele>
        <time>2012-02-29T14:59:19Z</time>
      </trkpt>
      <trkpt lat="47.20325" lon="6.01971">
        <ele>402.086517</ele>
        <time>2012-02-29T14:59:56Z</time>
      </trkpt>
      <trkpt lat="47.20325" lon="6.01971">
        <ele>402.10199</ele>
        <time>2012-02-29T15:00:35Z</time>
      </trkpt>
      <trkpt lat="47.20325" lon="6.01971">
        <ele>402.135895</ele>
        <time>2012-02-29T15:01:04Z</time>
      </trkpt>
      <trkpt lat="47.20325" lon="6.01972">
        <ele>402.145111</ele>
        <time>2012-02-29T15:01:35Z</time>
      </trkpt>
      <trkpt lat="47.20327" lon="6.01973">
        <ele>402.27594</ele>
        <time>2012-02-29T15:02:04Z</time>
      </trkpt>
      <trkpt lat="47.2033" lon="6.0198">
        <ele>402.688263</ele>
        <time>2012-02-29T15:02:17Z</time>
      </trkpt>
      <trkpt lat="47.20337" lon="6.01989">
        <ele>403.131989</ele>
        <time>2012-02-29T15:02:31Z</time>
      </trkpt>
      <trkpt lat="47.20343" lon="6.01997">
        <ele>403.244995</ele>
        <time>2012-02-29T15:02:40Z</time>
      </trkpt>
      <trkpt lat="47.2035" lon="6.02005">
        <ele>403.385925</ele>
        <time>2012-02-29T15:02:51Z</time>
      </trkpt>
      <trkpt lat="47.20352" lon="6.02008">
        <ele>403.532593</ele>
        <time>2012-02-29T15:02:53Z</time>
      </trkpt>
      <trkpt lat="47.20357" lon="6.02017">
        <ele>403.971191</ele>
        <time>2012-02-29T15:03:01Z</time>
      </trkpt>
      <trkpt lat="47.20368" lon="6.02033">
        <ele>404.924988</ele>
        <time>2012-02-29T15:03:16Z</time>
      </trkpt>
      <trkpt lat="47.20379" lon="6.0205">
        <ele>406.13501</ele>
        <time>2012-02-29T15:03:31Z</time>
      </trkpt>
      <trkpt lat="47.20382" lon="6.02055">
        <ele>406.451263</ele>
        <time>2012-02-29T15:03:36Z</time>
      </trkpt>
      <trkpt lat="47.20388" lon="6.02065">
        <ele>407.151245</ele>
        <time>2012-02-29T15:03:45Z</time>
      </trkpt>
      <trkpt lat="47.2039" lon="6.02067">
        <ele>407.326263</ele>
        <time>2012-02-29T15:03:47Z</time>
      </trkpt>
      <trkpt lat="47.20402" lon="6.02088">
        <ele>408.928741</ele>
        <time>2012-02-29T15:04:04Z</time>
      </trkpt>
      <trkpt lat="47.20408" lon="6.02099">
        <ele>409.630005</ele>
        <time>2012-02-29T15:04:13Z</time>
      </trkpt>
      <trkpt lat="47.20421" lon="6.02119">
        <ele>410.829987</ele>
        <time>2012-02-29T15:04:30Z</time>
      </trkpt>
      <trkpt lat="47.20422" lon="6.02121">
        <ele>410.970001</ele>
        <time>2012-02-29T15:04:32Z</time>
      </trkpt>
      <trkpt lat="47.20431" lon="6.02139">
        <ele>412.149994</ele>
        <time>2012-02-29T15:04:49Z</time>
      </trkpt>
      <trkpt lat="47.20443" lon="6.02159">
        <ele>413.419983</ele>
        <time>2012-02-29T15:05:06Z</time>
      </trkpt>
      <trkpt lat="47.20448" lon="6.0217">
        <ele>414.07605</ele>
        <time>2012-02-29T15:05:20Z</time>
      </trkpt>
      <trkpt lat="47.20462" lon="6.02193">
        <ele>415.1185</ele>
        <time>2012-02-29T15:05:38Z</time>
      </trkpt>
      <trkpt lat="47.20475" lon="6.02211">
        <ele>415.765564</ele>
        <time>2012-02-29T15:05:54Z</time>
      </trkpt>
      <trkpt lat="47.2048" lon="6.02218">
        <ele>415.952118</ele>
        <time>2012-02-29T15:06:01Z</time>
      </trkpt>
      <trkpt lat="47.20483" lon="6.02224">
        <ele>416.246002</ele>
        <time>2012-02-29T15:06:05Z</time>
      </trkpt>
      <trkpt lat="47.20485" lon="6.02229">
        <ele>416.652802</ele>
        <time>2012-02-29T15:06:10Z</time>
      </trkpt>
      <trkpt lat="47.20485" lon="6.02239">
        <ele>417.823486</ele>
        <time>2012-02-29T15:06:17Z</time>
      </trkpt>
      <trkpt lat="47.20482" lon="6.02246">
        <ele>418.997162</ele>
        <time>2012-02-29T15:06:25Z</time>
      </trkpt>
      <trkpt lat="47.20472" lon="6.02244">
        <ele>419.750854</ele>
        <time>2012-02-29T15:06:37Z</time>
      </trkpt>
      <trkpt lat="47.20468" lon="6.02241">
        <ele>419.786743</ele>
        <time>2012-02-29T15:06:41Z</time>
      </trkpt>
      <trkpt lat="47.20452" lon="6.02231">
        <ele>420.3797</ele>
        <time>2012-02-29T15:06:57Z</time>
      </trkpt>
      <trkpt lat="47.20431" lon="6.02219">
        <ele>421.290222</ele>
        <time>2012-02-29T15:07:17Z</time>
      </trkpt>
      <trkpt lat="47.20425" lon="6.02216">
        <ele>421.795288</ele>
        <time>2012-02-29T15:07:23Z</time>
      </trkpt>
      <trkpt lat="47.20422" lon="6.02215">
        <ele>421.985992</ele>
        <time>2012-02-29T15:07:26Z</time>
      </trkpt>
      <trkpt lat="47.20414" lon="6.02211">
        <ele>422.474457</ele>
        <time>2012-02-29T15:07:35Z</time>
      </trkpt>
      <trkpt lat="47.20411" lon="6.02212">
        <ele>423.031677</ele>
        <time>2012-02-29T15:07:38Z</time>
      </trkpt>
      <trkpt lat="47.20412" lon="6.02217">
        <ele>423.517242</ele>
        <time>2012-02-29T15:07:43Z</time>
      </trkpt>
      <trkpt lat="47.20415" lon="6.0222">
        <ele>423.454773</ele>
        <time>2012-02-29T15:07:47Z</time>
      </trkpt>
      <trkpt lat="47.20429" lon="6.02239">
        <ele>424.241302</ele>
        <time>2012-02-29T15:08:07Z</time>
      </trkpt>
      <trkpt lat="47.20443" lon="6.02256">
        <ele>424.945618</ele>
        <time>2012-02-29T15:08:24Z</time>
      </trkpt>
      <trkpt lat="47.20461" lon="6.02275">
        <ele>425.058105</ele>
        <time>2012-02-29T15:08:42Z</time>
      </trkpt>
      <trkpt lat="47.20477" lon="6.02297">
        <ele>425.993774</ele>
        <time>2012-02-29T15:09:01Z</time>
      </trkpt>
      <trkpt lat="47.20498" lon="6.02322">
        <ele>426.55838</ele>
        <time>2012-02-29T15:09:21Z</time>
      </trkpt>
      <trkpt lat="47.20519" lon="6.02345">
        <ele>426.452515</ele>
        <time>2012-02-29T15:09:41Z</time>
      </trkpt>
      <trkpt lat="47.20531" lon="6.02366">
        <ele>426.929901</ele>
        <time>2012-02-29T15:09:59Z</time>
      </trkpt>
      <trkpt lat="47.20547" lon="6.02392">
        <ele>427.790009</ele>
        <time>2012-02-29T15:10:18Z</time>
      </trkpt>
      <trkpt lat="47.20561" lon="6.0242">
        <ele>429.089996</ele>
        <time>2012-02-29T15:10:39Z</time>
      </trkpt>
      <trkpt lat="47.2057" lon="6.02436">
        <ele>429.689209</ele>
        <time>2012-02-29T15:10:51Z</time>
      </trkpt>
      <trkpt lat="47.20581" lon="6.02459">
        <ele>430.430206</ele>
        <time>2012-02-29T15:11:09Z</time>
      </trkpt>
      <trkpt lat="47.20584" lon="6.02466">
        <ele>430.675415</ele>
        <time>2012-02-29T15:11:14Z</time>
      </trkpt>
      <trkpt lat="47.20598" lon="6.02492">
        <ele>431.540802</ele>
        <time>2012-02-29T15:11:33Z</time>
      </trkpt>
      <trkpt lat="47.20609" lon="6.02513">
        <ele>432.474823</ele>
        <time>2012-02-29T15:11:49Z</time>
      </trkpt>
      <trkpt lat="47.20621" lon="6.02535">
        <ele>433.281128</ele>
        <time>2012-02-29T15:12:05Z</time>
      </trkpt>
      <trkpt lat="47.20635" lon="6.02559">
        <ele>433.99588</ele>
        <time>2012-02-29T15:12:25Z</time>
      </trkpt>
      <trkpt lat="47.20643" lon="6.02578">
        <ele>434.376007</ele>
        <time>2012-02-29T15:12:38Z</time>
      </trkpt>
      <trkpt lat="47.20658" lon="6.02605">
        <ele>434.480621</ele>
        <time>2012-02-29T15:12:58Z</time>
      </trkpt>
      <trkpt lat="47.20668" lon="6.02626">
        <ele>435.041443</ele>
        <time>2012-02-29T15:13:15Z</time>
      </trkpt>
      <trkpt lat="47.20679" lon="6.02649">
        <ele>435.884491</ele>
        <time>2012-02-29T15:13:31Z</time>
      </trkpt>
      <trkpt lat="47.20693" lon="6.02679">
        <ele>436.203278</ele>
        <time>2012-02-29T15:13:51Z</time>
      </trkpt>
      <trkpt lat="47.20705" lon="6.02706">
        <ele>436.254486</ele>
        <time>2012-02-29T15:14:08Z</time>
      </trkpt>
      <trkpt lat="47.20717" lon="6.02736">
        <ele>435.763092</ele>
        <time>2012-02-29T15:14:27Z</time>
      </trkpt>
      <trkpt lat="47.20728" lon="6.02763">
        <ele>435.314697</ele>
        <time>2012-02-29T15:14:45Z</time>
      </trkpt>
      <trkpt lat="47.20732" lon="6.02782">
        <ele>435.43576</ele>
        <time>2012-02-29T15:14:57Z</time>
      </trkpt>
      <trkpt lat="47.20739" lon="6.02815">
        <ele>434.253448</ele>
        <time>2012-02-29T15:15:16Z</time>
      </trkpt>
      <trkpt lat="47.20739" lon="6.02817">
        <ele>434.215027</ele>
        <time>2012-02-29T15:15:17Z</time>
      </trkpt>
      <trkpt lat="47.20739" lon="6.02825">
        <ele>434.10849</ele>
        <time>2012-02-29T15:15:23Z</time>
      </trkpt>
      <trkpt lat="47.20739" lon="6.02844">
        <ele>433.925751</ele>
        <time>2012-02-29T15:15:34Z</time>
      </trkpt>
      <trkpt lat="47.20738" lon="6.0285">
        <ele>433.3078</ele>
        <time>2012-02-29T15:15:38Z</time>
      </trkpt>
      <trkpt lat="47.20738" lon="6.02855">
        <ele>432.889709</ele>
        <time>2012-02-29T15:15:41Z</time>
      </trkpt>
      <trkpt lat="47.20736" lon="6.02866">
        <ele>431.926483</ele>
        <time>2012-02-29T15:15:47Z</time>
      </trkpt>
      <trkpt lat="47.20736" lon="6.02869">
        <ele>431.614655</ele>
        <time>2012-02-29T15:15:49Z</time>
      </trkpt>
      <trkpt lat="47.2073" lon="6.0289">
        <ele>430.162445</ele>
        <time>2012-02-29T15:16:03Z</time>
      </trkpt>
      <trkpt lat="47.20724" lon="6.02902">
        <ele>429.650879</ele>
        <time>2012-02-29T15:16:12Z</time>
      </trkpt>
      <trkpt lat="47.20723" lon="6.02909">
        <ele>429.140381</ele>
        <time>2012-02-29T15:16:16Z</time>
      </trkpt>
      <trkpt lat="47.20716" lon="6.02924">
        <ele>428.732758</ele>
        <time>2012-02-29T15:16:27Z</time>
      </trkpt>
      <trkpt lat="47.20712" lon="6.02929">
        <ele>428.93869</ele>
        <time>2012-02-29T15:16:32Z</time>
      </trkpt>
      <trkpt lat="47.20704" lon="6.02953">
        <ele>428.548706</ele>
        <time>2012-02-29T15:16:49Z</time>
      </trkpt>
      <trkpt lat="47.20702" lon="6.02961">
        <ele>428.309387</ele>
        <time>2012-02-29T15:16:54Z</time>
      </trkpt>
      <trkpt lat="47.207" lon="6.02965">
        <ele>428.312988</ele>
        <time>2012-02-29T15:16:57Z</time>
      </trkpt>
      <trkpt lat="47.20689" lon="6.02982">
        <ele>429.089264</ele>
        <time>2012-02-29T15:17:11Z</time>
      </trkpt>
      <trkpt lat="47.20685" lon="6.02987">
        <ele>429.36673</ele>
        <time>2012-02-29T15:17:15Z</time>
      </trkpt>
      <trkpt lat="47.20677" lon="6.02996">
        <ele>430.100647</ele>
        <time>2012-02-29T15:17:23Z</time>
      </trkpt>
      <trkpt lat="47.20672" lon="6.03003">
        <ele>430.421783</ele>
        <time>2012-02-29T15:17:29Z</time>
      </trkpt>
      <trkpt lat="47.20665" lon="6.03018">
        <ele>430.098877</ele>
        <time>2012-02-29T15:17:39Z</time>
      </trkpt>
      <trkpt lat="47.20656" lon="6.03031">
        <ele>430.752502</ele>
        <time>2012-02-29T15:17:50Z</time>
      </trkpt>
      <trkpt lat="47.20651" lon="6.03039">
        <ele>430.876007</ele>
        <time>2012-02-29T15:17:56Z</time>
      </trkpt>
      <trkpt lat="47.2065" lon="6.0305">
        <ele>430.26239</ele>
        <time>2012-02-29T15:18:02Z</time>
      </trkpt>
      <trkpt lat="47.20647" lon="6.03059">
        <ele>430.122833</ele>
        <time>2012-02-29T15:18:07Z</time>
      </trkpt>
      <trkpt lat="47.20646" lon="6.03063">
        <ele>430.049591</ele>
        <time>2012-02-29T15:18:09Z</time>
      </trkpt>
      <trkpt lat="47.20644" lon="6.03067">
        <ele>429.906128</ele>
        <time>2012-02-29T15:18:12Z</time>
      </trkpt>
      <trkpt lat="47.20645" lon="6.03096">
        <ele>427.197449</ele>
        <time>2012-02-29T15:18:26Z</time>
      </trkpt>
      <trkpt lat="47.20638" lon="6.0312">
        <ele>426.47876</ele>
        <time>2012-02-29T15:18:38Z</time>
      </trkpt>
      <trkpt lat="47.20636" lon="6.03127">
        <ele>426.16626</ele>
        <time>2012-02-29T15:18:42Z</time>
      </trkpt>
      <trkpt lat="47.20632" lon="6.03132">
        <ele>426.686249</ele>
        <time>2012-02-29T15:18:47Z</time>
      </trkpt>
      <trkpt lat="47.20629" lon="6.03137">
        <ele>426.709991</ele>
        <time>2012-02-29T15:18:51Z</time>
      </trkpt>
      <trkpt lat="47.20625" lon="6.03141">
        <ele>427.195007</ele>
        <time>2012-02-29T15:18:55Z</time>
      </trkpt>
      <trkpt lat="47.20619" lon="6.0315">
        <ele>427.587494</ele>
        <time>2012-02-29T15:19:02Z</time>
      </trkpt>
      <trkpt lat="47.20614" lon="6.03153">
        <ele>428.341248</ele>
        <time>2012-02-29T15:19:07Z</time>
      </trkpt>
      <trkpt lat="47.20612" lon="6.03155">
        <ele>428.673737</ele>
        <time>2012-02-29T15:19:09Z</time>
      </trkpt>
      <trkpt lat="47.20608" lon="6.03165">
        <ele>428.8237</ele>
        <time>2012-02-29T15:19:16Z</time>
      </trkpt>
      <trkpt lat="47.20608" lon="6.03179">
        <ele>428.387054</ele>
        <time>2012-02-29T15:19:22Z</time>
      </trkpt>
      <trkpt lat="47.20608" lon="6.03186">
        <ele>428.166077</ele>
        <time>2012-02-29T15:19:25Z</time>
      </trkpt>
      <trkpt lat="47.20607" lon="6.0319">
        <ele>428.208405</ele>
        <time>2012-02-29T15:19:27Z</time>
      </trkpt>
      <trkpt lat="47.20606" lon="6.03205">
        <ele>427.71701</ele>
        <time>2012-02-29T15:19:34Z</time>
      </trkpt>
      <trkpt lat="47.20605" lon="6.03211">
        <ele>427.757263</ele>
        <time>2012-02-29T15:19:37Z</time>
      </trkpt>
      <trkpt lat="47.20605" lon="6.03219">
        <ele>427.37149</ele>
        <time>2012-02-29T15:19:41Z</time>
      </trkpt>
      <trkpt lat="47.20604" lon="6.03236">
        <ele>427.397003</ele>
        <time>2012-02-29T15:19:50Z</time>
      </trkpt>
      <trkpt lat="47.20602" lon="6.03238">
        <ele>427.752014</ele>
        <time>2012-02-29T15:19:51Z</time>
      </trkpt>
      <trkpt lat="47.20602" lon="6.03245">
        <ele>427.731354</ele>
        <time>2012-02-29T15:19:55Z</time>
      </trkpt>
      <trkpt lat="47.20599" lon="6.03255">
        <ele>428.6633</ele>
        <time>2012-02-29T15:20:00Z</time>
      </trkpt>
      <trkpt lat="47.20596" lon="6.03257">
        <ele>429.210846</ele>
        <time>2012-02-29T15:20:02Z</time>
      </trkpt>
      <trkpt lat="47.20596" lon="6.03259">
        <ele>429.289368</ele>
        <time>2012-02-29T15:20:03Z</time>
      </trkpt>
      <trkpt lat="47.20596" lon="6.03264">
        <ele>429.398376</ele>
        <time>2012-02-29T15:20:06Z</time>
      </trkpt>
      <trkpt lat="47.20594" lon="6.03269">
        <ele>429.764191</ele>
        <time>2012-02-29T15:20:09Z</time>
      </trkpt>
      <trkpt lat="47.20592" lon="6.03284">
        <ele>430.278717</ele>
        <time>2012-02-29T15:20:18Z</time>
      </trkpt>
      <trkpt lat="47.20593" lon="6.03291">
        <ele>430.004822</ele>
        <time>2012-02-29T15:20:22Z</time>
      </trkpt>
      <trkpt lat="47.20594" lon="6.03296">
        <ele>430.012238</ele>
        <time>2012-02-29T15:20:24Z</time>
      </trkpt>
      <trkpt lat="47.20593" lon="6.03302">
        <ele>430.178589</ele>
        <time>2012-02-29T15:20:27Z</time>
      </trkpt>
      <trkpt lat="47.20592" lon="6.03312">
        <ele>430.540009</ele>
        <time>2012-02-29T15:20:33Z</time>
      </trkpt>
      <trkpt lat="47.20594" lon="6.03318">
        <ele>430.151642</ele>
        <time>2012-02-29T15:20:36Z</time>
      </trkpt>
      <trkpt lat="47.20594" lon="6.03334">
        <ele>430.4086</ele>
        <time>2012-02-29T15:20:43Z</time>
      </trkpt>
      <trkpt lat="47.20594" lon="6.03337">
        <ele>430.612488</ele>
        <time>2012-02-29T15:20:45Z</time>
      </trkpt>
      <trkpt lat="47.20588" lon="6.03358">
        <ele>432.013885</ele>
        <time>2012-02-29T15:21:01Z</time>
      </trkpt>
      <trkpt lat="47.20581" lon="6.03375">
        <ele>433.812897</ele>
        <time>2012-02-29T15:21:16Z</time>
      </trkpt>
      <trkpt lat="47.20581" lon="6.03377">
        <ele>434.025299</ele>
        <time>2012-02-29T15:21:18Z</time>
      </trkpt>
      <trkpt lat="47.20582" lon="6.03383">
        <ele>434.168121</ele>
        <time>2012-02-29T15:21:33Z</time>
      </trkpt>
      <trkpt lat="47.20581" lon="6.03387">
        <ele>434.474792</ele>
        <time>2012-02-29T15:21:47Z</time>
      </trkpt>
      <trkpt lat="47.20581" lon="6.03387">
        <ele>434.474792</ele>
        <time>2012-02-29T15:22:13Z</time>
      </trkpt>
      <trkpt lat="47.2058" lon="6.03387">
        <ele>434.559601</ele>
        <time>2012-02-29T15:22:41Z</time>
      </trkpt>
      <trkpt lat="47.2058" lon="6.03388">
        <ele>434.650818</ele>
        <time>2012-02-29T15:23:01Z</time>
      </trkpt>
      <trkpt lat="47.2058" lon="6.03396">
        <ele>435.024384</ele>
        <time>2012-02-29T15:23:06Z</time>
      </trkpt>
      <trkpt lat="47.20583" lon="6.03413">
        <ele>435.373444</ele>
        <time>2012-02-29T15:23:15Z</time>
      </trkpt>
      <trkpt lat="47.20594" lon="6.03443">
        <ele>436.221863</ele>
        <time>2012-02-29T15:23:33Z</time>
      </trkpt>
      <trkpt lat="47.20602" lon="6.0346">
        <ele>436.74527</ele>
        <time>2012-02-29T15:23:45Z</time>
      </trkpt>
      <trkpt lat="47.20606" lon="6.03467">
        <ele>436.936951</ele>
        <time>2012-02-29T15:23:51Z</time>
      </trkpt>
      <trkpt lat="47.20608" lon="6.03469">
        <ele>436.770508</ele>
        <time>2012-02-29T15:23:54Z</time>
      </trkpt>
      <trkpt lat="47.20618" lon="6.03483">
        <ele>436.624298</ele>
        <time>2012-02-29T15:24:05Z</time>
      </trkpt>
      <trkpt lat="47.20626" lon="6.03494">
        <ele>436.196625</ele>
        <time>2012-02-29T15:24:14Z</time>
      </trkpt>
      <trkpt lat="47.20644" lon="6.0352">
        <ele>436.206604</ele>
        <time>2012-02-29T15:24:32Z</time>
      </trkpt>
      <trkpt lat="47.2066" lon="6.03541">
        <ele>436.031189</ele>
        <time>2012-02-29T15:24:50Z</time>
      </trkpt>
      <trkpt lat="47.20668" lon="6.03553">
        <ele>436.122223</ele>
        <time>2012-02-29T15:25:00Z</time>
      </trkpt>
      <trkpt lat="47.20671" lon="6.03556">
        <ele>435.945404</ele>
        <time>2012-02-29T15:25:04Z</time>
      </trkpt>
      <trkpt lat="47.20687" lon="6.03582">
        <ele>436.037048</ele>
        <time>2012-02-29T15:25:20Z</time>
      </trkpt>
      <trkpt lat="47.20688" lon="6.03582">
        <ele>435.953583</ele>
        <time>2012-02-29T15:25:21Z</time>
      </trkpt>
      <trkpt lat="47.20691" lon="6.03587">
        <ele>435.797333</ele>
        <time>2012-02-29T15:25:25Z</time>
      </trkpt>
      <trkpt lat="47.20696" lon="6.03593">
        <ele>435.503479</ele>
        <time>2012-02-29T15:25:30Z</time>
      </trkpt>
      <trkpt lat="47.2071" lon="6.03612">
        <ele>434.928925</ele>
        <time>2012-02-29T15:25:47Z</time>
      </trkpt>
      <trkpt lat="47.20718" lon="6.03625">
        <ele>434.571167</ele>
        <time>2012-02-29T15:26:01Z</time>
      </trkpt>
      <trkpt lat="47.20724" lon="6.03639">
        <ele>434.832703</ele>
        <time>2012-02-29T15:26:08Z</time>
      </trkpt>
      <trkpt lat="47.20728" lon="6.03646">
        <ele>434.616364</ele>
        <time>2012-02-29T15:26:13Z</time>
      </trkpt>
      <trkpt lat="47.20729" lon="6.03661">
        <ele>435.490173</ele>
        <time>2012-02-29T15:26:27Z</time>
      </trkpt>
      <trkpt lat="47.20728" lon="6.03676">
        <ele>437.152893</ele>
        <time>2012-02-29T15:26:39Z</time>
      </trkpt>
      <trkpt lat="47.20731" lon="6.03689">
        <ele>437.48996</ele>
        <time>2012-02-29T15:26:47Z</time>
      </trkpt>
      <trkpt lat="47.20733" lon="6.03694">
        <ele>437.454987</ele>
        <time>2012-02-29T15:26:50Z</time>
      </trkpt>
      <trkpt lat="47.20733" lon="6.03701">
        <ele>438.063049</ele>
        <time>2012-02-29T15:26:55Z</time>
      </trkpt>
      <trkpt lat="47.20732" lon="6.03707">
        <ele>438.48999</ele>
        <time>2012-02-29T15:26:59Z</time>
      </trkpt>
      <trkpt lat="47.20731" lon="6.03717">
        <ele>439.445007</ele>
        <time>2012-02-29T15:27:07Z</time>
      </trkpt>
      <trkpt lat="47.20728" lon="6.03727">
        <ele>440.62088</ele>
        <time>2012-02-29T15:27:19Z</time>
      </trkpt>
      <trkpt lat="47.20725" lon="6.03742">
        <ele>442.208954</ele>
        <time>2012-02-29T15:27:34Z</time>
      </trkpt>
      <trkpt lat="47.20726" lon="6.0376">
        <ele>442.714661</ele>
        <time>2012-02-29T15:27:47Z</time>
      </trkpt>
      <trkpt lat="47.20731" lon="6.03778">
        <ele>442.56424</ele>
        <time>2012-02-29T15:27:58Z</time>
      </trkpt>
      <trkpt lat="47.20736" lon="6.03805">
        <ele>442.432709</ele>
        <time>2012-02-29T15:28:14Z</time>
      </trkpt>
      <trkpt lat="47.20738" lon="6.03809">
        <ele>442.222473</ele>
        <time>2012-02-29T15:28:17Z</time>
      </trkpt>
      <trkpt lat="47.20739" lon="6.03819">
        <ele>442.359894</ele>
        <time>2012-02-29T15:28:22Z</time>
      </trkpt>
      <trkpt lat="47.20741" lon="6.03828">
        <ele>442.08783</ele>
        <time>2012-02-29T15:28:25Z</time>
      </trkpt>
      <trkpt lat="47.20745" lon="6.03841">
        <ele>441.278168</ele>
        <time>2012-02-29T15:28:31Z</time>
      </trkpt>
      <trkpt lat="47.20745" lon="6.03853">
        <ele>440.978821</ele>
        <time>2012-02-29T15:28:39Z</time>
      </trkpt>
      <trkpt lat="47.20746" lon="6.03858">
        <ele>440.958801</ele>
        <time>2012-02-29T15:28:42Z</time>
      </trkpt>
      <trkpt lat="47.20755" lon="6.03881">
        <ele>437.681427</ele>
        <time>2012-02-29T15:28:51Z</time>
      </trkpt>
      <trkpt lat="47.20755" lon="6.03898">
        <ele>437.329987</ele>
        <time>2012-02-29T15:29:03Z</time>
      </trkpt>
      <trkpt lat="47.20755" lon="6.03903">
        <ele>437.645081</ele>
        <time>2012-02-29T15:29:11Z</time>
      </trkpt>
      <trkpt lat="47.20752" lon="6.0391">
        <ele>438.404388</ele>
        <time>2012-02-29T15:29:15Z</time>
      </trkpt>
      <trkpt lat="47.20753" lon="6.0392">
        <ele>438.127014</ele>
        <time>2012-02-29T15:29:20Z</time>
      </trkpt>
      <trkpt lat="47.20754" lon="6.03935">
        <ele>437.702515</ele>
        <time>2012-02-29T15:29:33Z</time>
      </trkpt>
      <trkpt lat="47.20752" lon="6.0394">
        <ele>438.305603</ele>
        <time>2012-02-29T15:29:36Z</time>
      </trkpt>
      <trkpt lat="47.20749" lon="6.03943">
        <ele>439.40448</ele>
        <time>2012-02-29T15:29:39Z</time>
      </trkpt>
      <trkpt lat="47.20736" lon="6.03955">
        <ele>444.356873</ele>
        <time>2012-02-29T15:29:47Z</time>
      </trkpt>
      <trkpt lat="47.20738" lon="6.03973">
        <ele>443.576477</ele>
        <time>2012-02-29T15:30:00Z</time>
      </trkpt>
      <trkpt lat="47.20738" lon="6.03985">
        <ele>443.540497</ele>
        <time>2012-02-29T15:30:06Z</time>
      </trkpt>
      <trkpt lat="47.20739" lon="6.03994">
        <ele>443.256561</ele>
        <time>2012-02-29T15:30:12Z</time>
      </trkpt>
      <trkpt lat="47.20729" lon="6.04014">
        <ele>447.387115</ele>
        <time>2012-02-29T15:30:26Z</time>
      </trkpt>
      <trkpt lat="47.20729" lon="6.04015">
        <ele>447.508759</ele>
        <time>2012-02-29T15:30:27Z</time>
      </trkpt>
      <trkpt lat="47.20728" lon="6.04017">
        <ele>447.837982</ele>
        <time>2012-02-29T15:30:29Z</time>
      </trkpt>
      <trkpt lat="47.20724" lon="6.04017">
        <ele>449.434448</ele>
        <time>2012-02-29T15:30:30Z</time>
      </trkpt>
      <trkpt lat="47.20723" lon="6.04022">
        <ele>450.117371</ele>
        <time>2012-02-29T15:30:32Z</time>
      </trkpt>
      <trkpt lat="47.20723" lon="6.04038">
        <ele>450.298126</ele>
        <time>2012-02-29T15:30:41Z</time>
      </trkpt>
      <trkpt lat="47.20719" lon="6.04053">
        <ele>452.320862</ele>
        <time>2012-02-29T15:30:51Z</time>
      </trkpt>
      <trkpt lat="47.20719" lon="6.0407">
        <ele>452.982697</ele>
        <time>2012-02-29T15:31:03Z</time>
      </trkpt>
      <trkpt lat="47.20719" lon="6.04083">
        <ele>453.541382</ele>
        <time>2012-02-29T15:31:15Z</time>
      </trkpt>
      <trkpt lat="47.20718" lon="6.04086">
        <ele>453.773712</ele>
        <time>2012-02-29T15:31:19Z</time>
      </trkpt>
      <trkpt lat="47.20715" lon="6.04099">
        <ele>456.175354</ele>
        <time>2012-02-29T15:31:27Z</time>
      </trkpt>
      <trkpt lat="47.20715" lon="6.04107">
        <ele>456.549133</ele>
        <time>2012-02-29T15:31:32Z</time>
      </trkpt>
      <trkpt lat="47.2072" lon="6.04127">
        <ele>455.811646</ele>
        <time>2012-02-29T15:31:46Z</time>
      </trkpt>
      <trkpt lat="47.20719" lon="6.04128">
        <ele>456.38858</ele>
        <time>2012-02-29T15:31:48Z</time>
      </trkpt>
      <trkpt lat="47.20722" lon="6.04144">
        <ele>456.291748</ele>
        <time>2012-02-29T15:31:56Z</time>
      </trkpt>
      <trkpt lat="47.20724" lon="6.04149">
        <ele>455.604797</ele>
        <time>2012-02-29T15:32:00Z</time>
      </trkpt>
      <trkpt lat="47.20727" lon="6.04158">
        <ele>454.743439</ele>
        <time>2012-02-29T15:32:07Z</time>
      </trkpt>
      <trkpt lat="47.20725" lon="6.04168">
        <ele>456.314117</ele>
        <time>2012-02-29T15:32:15Z</time>
      </trkpt>
      <trkpt lat="47.20725" lon="6.04172">
        <ele>456.90625</ele>
        <time>2012-02-29T15:32:17Z</time>
      </trkpt>
      <trkpt lat="47.20727" lon="6.04176">
        <ele>456.428253</ele>
        <time>2012-02-29T15:32:19Z</time>
      </trkpt>
      <trkpt lat="47.20729" lon="6.04192">
        <ele>456.771606</ele>
        <time>2012-02-29T15:32:30Z</time>
      </trkpt>
      <trkpt lat="47.20729" lon="6.04193">
        <ele>456.767181</ele>
        <time>2012-02-29T15:32:31Z</time>
      </trkpt>
      <trkpt lat="47.20728" lon="6.04198">
        <ele>457.469604</ele>
        <time>2012-02-29T15:32:35Z</time>
      </trkpt>
      <trkpt lat="47.20731" lon="6.04205">
        <ele>456.348938</ele>
        <time>2012-02-29T15:32:39Z</time>
      </trkpt>
      <trkpt lat="47.20734" lon="6.04218">
        <ele>456.016724</ele>
        <time>2012-02-29T15:32:47Z</time>
      </trkpt>
      <trkpt lat="47.20735" lon="6.04223">
        <ele>455.893921</ele>
        <time>2012-02-29T15:32:51Z</time>
      </trkpt>
      <trkpt lat="47.20737" lon="6.04234">
        <ele>455.519012</ele>
        <time>2012-02-29T15:32:59Z</time>
      </trkpt>
      <trkpt lat="47.20738" lon="6.04246">
        <ele>455.799591</ele>
        <time>2012-02-29T15:33:07Z</time>
      </trkpt>
      <trkpt lat="47.20738" lon="6.04248">
        <ele>456.188293</ele>
        <time>2012-02-29T15:33:08Z</time>
      </trkpt>
      <trkpt lat="47.20735" lon="6.04252">
        <ele>458.039612</ele>
        <time>2012-02-29T15:33:12Z</time>
      </trkpt>
      <trkpt lat="47.20737" lon="6.04271">
        <ele>458.691559</ele>
        <time>2012-02-29T15:33:26Z</time>
      </trkpt>
      <trkpt lat="47.2074" lon="6.04282">
        <ele>458.153809</ele>
        <time>2012-02-29T15:33:33Z</time>
      </trkpt>
      <trkpt lat="47.20745" lon="6.043">
        <ele>457.544373</ele>
        <time>2012-02-29T15:33:46Z</time>
      </trkpt>
      <trkpt lat="47.20745" lon="6.04316">
        <ele>459.742188</ele>
        <time>2012-02-29T15:33:59Z</time>
      </trkpt>
      <trkpt lat="47.20743" lon="6.04321">
        <ele>460.978363</ele>
        <time>2012-02-29T15:34:03Z</time>
      </trkpt>
      <trkpt lat="47.20744" lon="6.04336">
        <ele>462.801208</ele>
        <time>2012-02-29T15:34:15Z</time>
      </trkpt>
      <trkpt lat="47.20746" lon="6.04357">
        <ele>465.442719</ele>
        <time>2012-02-29T15:34:29Z</time>
      </trkpt>
      <trkpt lat="47.20748" lon="6.04362">
        <ele>465.52301</ele>
        <time>2012-02-29T15:34:31Z</time>
      </trkpt>
      <trkpt lat="47.20749" lon="6.04367">
        <ele>465.986511</ele>
        <time>2012-02-29T15:34:35Z</time>
      </trkpt>
      <trkpt lat="47.20752" lon="6.04389">
        <ele>467.25</ele>
        <time>2012-02-29T15:34:49Z</time>
      </trkpt>
      <trkpt lat="47.20751" lon="6.04403">
        <ele>468.556244</ele>
        <time>2012-02-29T15:35:00Z</time>
      </trkpt>
      <trkpt lat="47.20752" lon="6.04412">
        <ele>468.862915</ele>
        <time>2012-02-29T15:35:15Z</time>
      </trkpt>
      <trkpt lat="47.20752" lon="6.04412">
        <ele>468.862915</ele>
        <time>2012-02-29T15:35:44Z</time>
      </trkpt>
      <trkpt lat="47.20752" lon="6.04412">
        <ele>468.862915</ele>
        <time>2012-02-29T15:36:12Z</time>
      </trkpt>
      <trkpt lat="47.20752" lon="6.04412">
        <ele>468.862915</ele>
        <time>2012-02-29T15:36:38Z</time>
      </trkpt>
      <trkpt lat="47.20749" lon="6.04417">
        <ele>469.904999</ele>
        <time>2012-02-29T15:36:56Z</time>
      </trkpt>
      <trkpt lat="47.20751" lon="6.04429">
        <ele>470.940002</ele>
        <time>2012-02-29T15:37:08Z</time>
      </trkpt>
      <trkpt lat="47.20752" lon="6.04433">
        <ele>470.23999</ele>
        <time>2012-02-29T15:37:11Z</time>
      </trkpt>
      <trkpt lat="47.20759" lon="6.0445">
        <ele>468.077576</ele>
        <time>2012-02-29T15:37:25Z</time>
      </trkpt>
      <trkpt lat="47.20763" lon="6.04462">
        <ele>467.117249</ele>
        <time>2012-02-29T15:37:35Z</time>
      </trkpt>
      <trkpt lat="47.20768" lon="6.04476">
        <ele>467.108429</ele>
        <time>2012-02-29T15:37:47Z</time>
      </trkpt>
      <trkpt lat="47.20774" lon="6.04497">
        <ele>468.498993</ele>
        <time>2012-02-29T15:38:02Z</time>
      </trkpt>
      <trkpt lat="47.20777" lon="6.04504">
        <ele>468.431427</ele>
        <time>2012-02-29T15:38:08Z</time>
      </trkpt>
      <trkpt lat="47.20781" lon="6.04516">
        <ele>468.423431</ele>
        <time>2012-02-29T15:38:16Z</time>
      </trkpt>
      <trkpt lat="47.20782" lon="6.04521">
        <ele>468.572937</ele>
        <time>2012-02-29T15:38:19Z</time>
      </trkpt>
      <trkpt lat="47.20785" lon="6.04534">
        <ele>469.035797</ele>
        <time>2012-02-29T15:38:28Z</time>
      </trkpt>
      <trkpt lat="47.20789" lon="6.04545">
        <ele>469.560272</ele>
        <time>2012-02-29T15:38:36Z</time>
      </trkpt>
      <trkpt lat="47.20792" lon="6.04554">
        <ele>469.999237</ele>
        <time>2012-02-29T15:38:42Z</time>
      </trkpt>
      <trkpt lat="47.20795" lon="6.04564">
        <ele>469.606293</ele>
        <time>2012-02-29T15:38:47Z</time>
      </trkpt>
      <trkpt lat="47.20798" lon="6.0457">
        <ele>468.313812</ele>
        <time>2012-02-29T15:38:51Z</time>
      </trkpt>
      <trkpt lat="47.20803" lon="6.04582">
        <ele>467.236267</ele>
        <time>2012-02-29T15:38:59Z</time>
      </trkpt>
      <trkpt lat="47.20804" lon="6.04589">
        <ele>467.344208</ele>
        <time>2012-02-29T15:39:03Z</time>
      </trkpt>
      <trkpt lat="47.20811" lon="6.04605">
        <ele>467.265381</ele>
        <time>2012-02-29T15:39:14Z</time>
      </trkpt>
      <trkpt lat="47.20814" lon="6.04615">
        <ele>468.011353</ele>
        <time>2012-02-29T15:39:22Z</time>
      </trkpt>
      <trkpt lat="47.20818" lon="6.04626">
        <ele>469.272217</ele>
        <time>2012-02-29T15:39:31Z</time>
      </trkpt>
      <trkpt lat="47.20819" lon="6.04631">
        <ele>469.99704</ele>
        <time>2012-02-29T15:39:35Z</time>
      </trkpt>
      <trkpt lat="47.20821" lon="6.04643">
        <ele>470.348206</ele>
        <time>2012-02-29T15:39:44Z</time>
      </trkpt>
      <trkpt lat="47.20826" lon="6.0466">
        <ele>470.431763</ele>
        <time>2012-02-29T15:39:58Z</time>
      </trkpt>
      <trkpt lat="47.20824" lon="6.04659">
        <ele>470.435852</ele>
        <time>2012-02-29T15:40:11Z</time>
      </trkpt>
      <trkpt lat="47.20827" lon="6.04671">
        <ele>470.550873</ele>
        <time>2012-02-29T15:40:29Z</time>
      </trkpt>
      <trkpt lat="47.20828" lon="6.04672">
        <ele>470.569</ele>
        <time>2012-02-29T15:40:31Z</time>
      </trkpt>
      <trkpt lat="47.20835" lon="6.04684">
        <ele>469.633575</ele>
        <time>2012-02-29T15:40:40Z</time>
      </trkpt>
      <trkpt lat="47.20837" lon="6.04689">
        <ele>468.704559</ele>
        <time>2012-02-29T15:40:45Z</time>
      </trkpt>
      <trkpt lat="47.20838" lon="6.04692">
        <ele>468.325684</ele>
        <time>2012-02-29T15:40:47Z</time>
      </trkpt>
      <trkpt lat="47.20839" lon="6.04697">
        <ele>468.402435</ele>
        <time>2012-02-29T15:40:50Z</time>
      </trkpt>
      <trkpt lat="47.20844" lon="6.0471">
        <ele>467.133972</ele>
        <time>2012-02-29T15:40:59Z</time>
      </trkpt>
      <trkpt lat="47.20853" lon="6.04731">
        <ele>466.032562</ele>
        <time>2012-02-29T15:41:12Z</time>
      </trkpt>
      <trkpt lat="47.20858" lon="6.04744">
        <ele>466.245575</ele>
        <time>2012-02-29T15:41:19Z</time>
      </trkpt>
      <trkpt lat="47.20859" lon="6.04751">
        <ele>467.136536</ele>
        <time>2012-02-29T15:41:24Z</time>
      </trkpt>
      <trkpt lat="47.20861" lon="6.04756">
        <ele>467.503845</ele>
        <time>2012-02-29T15:41:27Z</time>
      </trkpt>
      <trkpt lat="47.20863" lon="6.04766">
        <ele>468.690582</ele>
        <time>2012-02-29T15:41:36Z</time>
      </trkpt>
      <trkpt lat="47.20864" lon="6.0477">
        <ele>469.023438</ele>
        <time>2012-02-29T15:41:38Z</time>
      </trkpt>
      <trkpt lat="47.2087" lon="6.04788">
        <ele>469.007416</ele>
        <time>2012-02-29T15:41:49Z</time>
      </trkpt>
      <trkpt lat="47.20873" lon="6.04795">
        <ele>469.218567</ele>
        <time>2012-02-29T15:41:54Z</time>
      </trkpt>
      <trkpt lat="47.20876" lon="6.04802">
        <ele>468.581482</ele>
        <time>2012-02-29T15:41:58Z</time>
      </trkpt>
      <trkpt lat="47.20878" lon="6.04808">
        <ele>468.274048</ele>
        <time>2012-02-29T15:42:02Z</time>
      </trkpt>
      <trkpt lat="47.20881" lon="6.04828">
        <ele>468.322144</ele>
        <time>2012-02-29T15:42:16Z</time>
      </trkpt>
      <trkpt lat="47.20886" lon="6.04848">
        <ele>468.010986</ele>
        <time>2012-02-29T15:42:32Z</time>
      </trkpt>
      <trkpt lat="47.20889" lon="6.04857">
        <ele>467.804626</ele>
        <time>2012-02-29T15:42:37Z</time>
      </trkpt>
      <trkpt lat="47.20898" lon="6.04879">
        <ele>468.103882</ele>
        <time>2012-02-29T15:42:53Z</time>
      </trkpt>
      <trkpt lat="47.20905" lon="6.04894">
        <ele>469.485748</ele>
        <time>2012-02-29T15:43:04Z</time>
      </trkpt>
      <trkpt lat="47.20906" lon="6.04901">
        <ele>470.303345</ele>
        <time>2012-02-29T15:43:09Z</time>
      </trkpt>
      <trkpt lat="47.20908" lon="6.04908">
        <ele>470.484985</ele>
        <time>2012-02-29T15:43:13Z</time>
      </trkpt>
      <trkpt lat="47.20916" lon="6.04923">
        <ele>469.981293</ele>
        <time>2012-02-29T15:43:24Z</time>
      </trkpt>
      <trkpt lat="47.20917" lon="6.04928">
        <ele>469.288788</ele>
        <time>2012-02-29T15:43:27Z</time>
      </trkpt>
      <trkpt lat="47.2092" lon="6.04936">
        <ele>468.104614</ele>
        <time>2012-02-29T15:43:32Z</time>
      </trkpt>
      <trkpt lat="47.20923" lon="6.04942">
        <ele>467.494781</ele>
        <time>2012-02-29T15:43:36Z</time>
      </trkpt>
      <trkpt lat="47.20927" lon="6.04949">
        <ele>466.589203</ele>
        <time>2012-02-29T15:43:41Z</time>
      </trkpt>
      <trkpt lat="47.20931" lon="6.04955">
        <ele>465.949371</ele>
        <time>2012-02-29T15:43:46Z</time>
      </trkpt>
      <trkpt lat="47.20941" lon="6.04976">
        <ele>466.007813</ele>
        <time>2012-02-29T15:44:02Z</time>
      </trkpt>
      <trkpt lat="47.20949" lon="6.04987">
        <ele>465.809998</ele>
        <time>2012-02-29T15:44:10Z</time>
      </trkpt>
      <trkpt lat="47.20954" lon="6.04997">
        <ele>466.22699</ele>
        <time>2012-02-29T15:44:16Z</time>
      </trkpt>
      <trkpt lat="47.20955" lon="6.04999">
        <ele>466.382996</ele>
        <time>2012-02-29T15:44:18Z</time>
      </trkpt>
      <trkpt lat="47.20959" lon="6.05006">
        <ele>466.284149</ele>
        <time>2012-02-29T15:44:24Z</time>
      </trkpt>
      <trkpt lat="47.20961" lon="6.0501">
        <ele>465.791595</ele>
        <time>2012-02-29T15:44:27Z</time>
      </trkpt>
      <trkpt lat="47.20964" lon="6.0502">
        <ele>465.779449</ele>
        <time>2012-02-29T15:44:34Z</time>
      </trkpt>
      <trkpt lat="47.20966" lon="6.05026">
        <ele>465.611755</ele>
        <time>2012-02-29T15:44:38Z</time>
      </trkpt>
      <trkpt lat="47.20972" lon="6.05039">
        <ele>465.27356</ele>
        <time>2012-02-29T15:44:48Z</time>
      </trkpt>
      <trkpt lat="47.20976" lon="6.05046">
        <ele>464.294373</ele>
        <time>2012-02-29T15:44:56Z</time>
      </trkpt>
      <trkpt lat="47.20982" lon="6.05065">
        <ele>463.829987</ele>
        <time>2012-02-29T15:45:09Z</time>
      </trkpt>
      <trkpt lat="47.20985" lon="6.05075">
        <ele>464.106964</ele>
        <time>2012-02-29T15:45:17Z</time>
      </trkpt>
      <trkpt lat="47.20995" lon="6.05095">
        <ele>465.882355</ele>
        <time>2012-02-29T15:45:32Z</time>
      </trkpt>
      <trkpt lat="47.21001" lon="6.05109">
        <ele>467.098633</ele>
        <time>2012-02-29T15:45:40Z</time>
      </trkpt>
      <trkpt lat="47.21002" lon="6.05112">
        <ele>466.756897</ele>
        <time>2012-02-29T15:45:42Z</time>
      </trkpt>
      <trkpt lat="47.21017" lon="6.05133">
        <ele>462.972626</ele>
        <time>2012-02-29T15:46:00Z</time>
      </trkpt>
      <trkpt lat="47.21019" lon="6.05142">
        <ele>463.251343</ele>
        <time>2012-02-29T15:46:08Z</time>
      </trkpt>
      <trkpt lat="47.21027" lon="6.05156">
        <ele>463.68161</ele>
        <time>2012-02-29T15:46:19Z</time>
      </trkpt>
      <trkpt lat="47.21028" lon="6.05159">
        <ele>464.002258</ele>
        <time>2012-02-29T15:46:21Z</time>
      </trkpt>
      <trkpt lat="47.21036" lon="6.05176">
        <ele>466.815613</ele>
        <time>2012-02-29T15:46:36Z</time>
      </trkpt>
      <trkpt lat="47.21043" lon="6.05186">
        <ele>466.764709</ele>
        <time>2012-02-29T15:46:48Z</time>
      </trkpt>
      <trkpt lat="47.21046" lon="6.05195">
        <ele>465.628448</ele>
        <time>2012-02-29T15:46:54Z</time>
      </trkpt>
      <trkpt lat="47.21051" lon="6.05201">
        <ele>464.041504</ele>
        <time>2012-02-29T15:46:58Z</time>
      </trkpt>
      <trkpt lat="47.21055" lon="6.05208">
        <ele>463.096497</ele>
        <time>2012-02-29T15:47:04Z</time>
      </trkpt>
      <trkpt lat="47.2106" lon="6.0522">
        <ele>462.748749</ele>
        <time>2012-02-29T15:47:11Z</time>
      </trkpt>
      <trkpt lat="47.21065" lon="6.05227">
        <ele>462.526794</ele>
        <time>2012-02-29T15:47:17Z</time>
      </trkpt>
      <trkpt lat="47.21067" lon="6.05233">
        <ele>462.736938</ele>
        <time>2012-02-29T15:47:20Z</time>
      </trkpt>
      <trkpt lat="47.21077" lon="6.05254">
        <ele>463.725006</ele>
        <time>2012-02-29T15:47:31Z</time>
      </trkpt>
      <trkpt lat="47.21088" lon="6.05274">
        <ele>463.513824</ele>
        <time>2012-02-29T15:47:44Z</time>
      </trkpt>
      <trkpt lat="47.2109" lon="6.05278">
        <ele>463.153595</ele>
        <time>2012-02-29T15:47:49Z</time>
      </trkpt>
      <trkpt lat="47.21095" lon="6.05277">
        <ele>461.015869</ele>
        <time>2012-02-29T15:47:54Z</time>
      </trkpt>
      <trkpt lat="47.21104" lon="6.05288">
        <ele>459.825287</ele>
        <time>2012-02-29T15:48:04Z</time>
      </trkpt>
      <trkpt lat="47.21105" lon="6.0529">
        <ele>460.029449</ele>
        <time>2012-02-29T15:48:10Z</time>
      </trkpt>
      <trkpt lat="47.21107" lon="6.05295">
        <ele>460.288727</ele>
        <time>2012-02-29T15:48:13Z</time>
      </trkpt>
      <trkpt lat="47.21112" lon="6.05308">
        <ele>461.868042</ele>
        <time>2012-02-29T15:48:19Z</time>
      </trkpt>
      <trkpt lat="47.21115" lon="6.05316">
        <ele>462.446136</ele>
        <time>2012-02-29T15:48:24Z</time>
      </trkpt>
      <trkpt lat="47.2112" lon="6.05324">
        <ele>461.713318</ele>
        <time>2012-02-29T15:48:28Z</time>
      </trkpt>
      <trkpt lat="47.21123" lon="6.05332">
        <ele>461.502808</ele>
        <time>2012-02-29T15:48:35Z</time>
      </trkpt>
      <trkpt lat="47.21127" lon="6.05341">
        <ele>461.291046</ele>
        <time>2012-02-29T15:48:42Z</time>
      </trkpt>
      <trkpt lat="47.21134" lon="6.05352">
        <ele>459.339081</ele>
        <time>2012-02-29T15:48:55Z</time>
      </trkpt>
      <trkpt lat="47.21136" lon="6.05353">
        <ele>458.790161</ele>
        <time>2012-02-29T15:48:57Z</time>
      </trkpt>
      <trkpt lat="47.21148" lon="6.05369">
        <ele>456.99884</ele>
        <time>2012-02-29T15:49:11Z</time>
      </trkpt>
      <trkpt lat="47.21153" lon="6.05378">
        <ele>457.040344</ele>
        <time>2012-02-29T15:49:22Z</time>
      </trkpt>
      <trkpt lat="47.21165" lon="6.05405">
        <ele>456.211243</ele>
        <time>2012-02-29T15:49:37Z</time>
      </trkpt>
      <trkpt lat="47.21169" lon="6.05421">
        <ele>456.78125</ele>
        <time>2012-02-29T15:49:49Z</time>
      </trkpt>
      <trkpt lat="47.21175" lon="6.05434">
        <ele>456.087616</ele>
        <time>2012-02-29T15:50:06Z</time>
      </trkpt>
      <trkpt lat="47.21176" lon="6.05434">
        <ele>455.922485</ele>
        <time>2012-02-29T15:50:21Z</time>
      </trkpt>
      <trkpt lat="47.21176" lon="6.05435">
        <ele>456.086975</ele>
        <time>2012-02-29T15:50:27Z</time>
      </trkpt>
      <trkpt lat="47.21177" lon="6.0545">
        <ele>457.414459</ele>
        <time>2012-02-29T15:50:36Z</time>
      </trkpt>
      <trkpt lat="47.21177" lon="6.05462">
        <ele>458.133667</ele>
        <time>2012-02-29T15:50:42Z</time>
      </trkpt>
      <trkpt lat="47.21183" lon="6.05476">
        <ele>458.834503</ele>
        <time>2012-02-29T15:51:26Z</time>
      </trkpt>
      <trkpt lat="47.21186" lon="6.05476">
        <ele>458.74646</ele>
        <time>2012-02-29T15:51:29Z</time>
      </trkpt>
      <trkpt lat="47.21187" lon="6.05477">
        <ele>458.708618</ele>
        <time>2012-02-29T15:51:31Z</time>
      </trkpt>
      <trkpt lat="47.21191" lon="6.05478">
        <ele>458.751404</ele>
        <time>2012-02-29T15:51:34Z</time>
      </trkpt>
      <trkpt lat="47.21209" lon="6.05478">
        <ele>457.871887</ele>
        <time>2012-02-29T15:51:51Z</time>
      </trkpt>
      <trkpt lat="47.21213" lon="6.0548">
        <ele>458.094055</ele>
        <time>2012-02-29T15:51:58Z</time>
      </trkpt>
      <trkpt lat="47.21226" lon="6.05491">
        <ele>456.924561</ele>
        <time>2012-02-29T15:52:10Z</time>
      </trkpt>
      <trkpt lat="47.21227" lon="6.05495">
        <ele>457.314667</ele>
        <time>2012-02-29T15:52:15Z</time>
      </trkpt>
      <trkpt lat="47.21233" lon="6.05502">
        <ele>456.926941</ele>
        <time>2012-02-29T15:52:23Z</time>
      </trkpt>
      <trkpt lat="47.2124" lon="6.0551">
        <ele>456.786987</ele>
        <time>2012-02-29T15:52:30Z</time>
      </trkpt>
      <trkpt lat="47.21244" lon="6.05515">
        <ele>456.454742</ele>
        <time>2012-02-29T15:52:33Z</time>
      </trkpt>
      <trkpt lat="47.21248" lon="6.05523">
        <ele>456.576202</ele>
        <time>2012-02-29T15:52:37Z</time>
      </trkpt>
      <trkpt lat="47.21251" lon="6.05528">
        <ele>456.224487</ele>
        <time>2012-02-29T15:52:40Z</time>
      </trkpt>
      <trkpt lat="47.21255" lon="6.05533">
        <ele>455.6875</ele>
        <time>2012-02-29T15:52:43Z</time>
      </trkpt>
      <trkpt lat="47.2126" lon="6.05537">
        <ele>454.958405</ele>
        <time>2012-02-29T15:52:49Z</time>
      </trkpt>
      <trkpt lat="47.21263" lon="6.05539">
        <ele>454.247498</ele>
        <time>2012-02-29T15:52:51Z</time>
      </trkpt>
      <trkpt lat="47.2127" lon="6.05543">
        <ele>452.62204</ele>
        <time>2012-02-29T15:52:58Z</time>
      </trkpt>
      <trkpt lat="47.21277" lon="6.05542">
        <ele>450.322937</ele>
        <time>2012-02-29T15:53:11Z</time>
      </trkpt>
      <trkpt lat="47.21282" lon="6.05541">
        <ele>448.800201</ele>
        <time>2012-02-29T15:53:17Z</time>
      </trkpt>
      <trkpt lat="47.21285" lon="6.05543">
        <ele>448.254974</ele>
        <time>2012-02-29T15:53:21Z</time>
      </trkpt>
      <trkpt lat="47.21296" lon="6.05553">
        <ele>446.574768</ele>
        <time>2012-02-29T15:53:31Z</time>
      </trkpt>
      <trkpt lat="47.21302" lon="6.05557">
        <ele>445.950195</ele>
        <time>2012-02-29T15:53:36Z</time>
      </trkpt>
      <trkpt lat="47.21304" lon="6.0556">
        <ele>446.03949</ele>
        <time>2012-02-29T15:53:38Z</time>
      </trkpt>
      <trkpt lat="47.21311" lon="6.05565">
        <ele>445.989532</ele>
        <time>2012-02-29T15:53:47Z</time>
      </trkpt>
      <trkpt lat="47.21314" lon="6.05569">
        <ele>446.055969</ele>
        <time>2012-02-29T15:53:50Z</time>
      </trkpt>
      <trkpt lat="47.21322" lon="6.05577">
        <ele>446.139374</ele>
        <time>2012-02-29T15:53:59Z</time>
      </trkpt>
      <trkpt lat="47.21324" lon="6.05586">
        <ele>447.296875</ele>
        <time>2012-02-29T15:54:06Z</time>
      </trkpt>
      <trkpt lat="47.21337" lon="6.05605">
        <ele>447.940643</ele>
        <time>2012-02-29T15:54:18Z</time>
      </trkpt>
      <trkpt lat="47.21359" lon="6.05627">
        <ele>449.597076</ele>
        <time>2012-02-29T15:54:29Z</time>
      </trkpt>
      <trkpt lat="47.21361" lon="6.05629">
        <ele>449.740936</ele>
        <time>2012-02-29T15:54:30Z</time>
      </trkpt>
      <trkpt lat="47.21383" lon="6.05647">
        <ele>450.962494</ele>
        <time>2012-02-29T15:54:43Z</time>
      </trkpt>
      <trkpt lat="47.21404" lon="6.05647">
        <ele>450.557831</ele>
        <time>2012-02-29T15:55:01Z</time>
      </trkpt>
      <trkpt lat="47.21411" lon="6.05641">
        <ele>449.756073</ele>
        <time>2012-02-29T15:55:09Z</time>
      </trkpt>
      <trkpt lat="47.21424" lon="6.05623">
        <ele>447.940643</ele>
        <time>2012-02-29T15:55:25Z</time>
      </trkpt>
      <trkpt lat="47.21428" lon="6.05621">
        <ele>447.776611</ele>
        <time>2012-02-29T15:55:29Z</time>
      </trkpt>
      <trkpt lat="47.21442" lon="6.05616">
        <ele>447.667755</ele>
        <time>2012-02-29T15:55:43Z</time>
      </trkpt>
      <trkpt lat="47.21443" lon="6.05616">
        <ele>447.65802</ele>
        <time>2012-02-29T15:55:44Z</time>
      </trkpt>
      <trkpt lat="47.21446" lon="6.05613">
        <ele>447.528503</ele>
        <time>2012-02-29T15:55:46Z</time>
      </trkpt>
      <trkpt lat="47.21451" lon="6.05611">
        <ele>447.556061</ele>
        <time>2012-02-29T15:55:49Z</time>
      </trkpt>
      <trkpt lat="47.21479" lon="6.05607">
        <ele>448.328857</ele>
        <time>2012-02-29T15:56:07Z</time>
      </trkpt>
      <trkpt lat="47.21502" lon="6.05587">
        <ele>450.699493</ele>
        <time>2012-02-29T15:56:27Z</time>
      </trkpt>
      <trkpt lat="47.21507" lon="6.05584">
        <ele>451.233337</ele>
        <time>2012-02-29T15:56:31Z</time>
      </trkpt>
      <trkpt lat="47.21524" lon="6.05558">
        <ele>451.367249</ele>
        <time>2012-02-29T15:56:51Z</time>
      </trkpt>
      <trkpt lat="47.21524" lon="6.05556">
        <ele>451.24826</ele>
        <time>2012-02-29T15:56:52Z</time>
      </trkpt>
      <trkpt lat="47.21525" lon="6.05554">
        <ele>451.244995</ele>
        <time>2012-02-29T15:56:54Z</time>
      </trkpt>
      <trkpt lat="47.21537" lon="6.05529">
        <ele>451.229095</ele>
        <time>2012-02-29T15:57:12Z</time>
      </trkpt>
      <trkpt lat="47.21545" lon="6.05519">
        <ele>451.718994</ele>
        <time>2012-02-29T15:57:24Z</time>
      </trkpt>
      <trkpt lat="47.21552" lon="6.05508">
        <ele>451.868134</ele>
        <time>2012-02-29T15:57:34Z</time>
      </trkpt>
      <trkpt lat="47.21564" lon="6.05481">
        <ele>451.077942</ele>
        <time>2012-02-29T15:57:53Z</time>
      </trkpt>
      <trkpt lat="47.21577" lon="6.05457">
        <ele>451.014648</ele>
        <time>2012-02-29T15:58:11Z</time>
      </trkpt>
      <trkpt lat="47.21585" lon="6.05447">
        <ele>451.47818</ele>
        <time>2012-02-29T15:58:20Z</time>
      </trkpt>
      <trkpt lat="47.2159" lon="6.05442">
        <ele>451.875366</ele>
        <time>2012-02-29T15:58:26Z</time>
      </trkpt>
      <trkpt lat="47.21602" lon="6.05422">
        <ele>451.950226</ele>
        <time>2012-02-29T15:58:43Z</time>
      </trkpt>
      <trkpt lat="47.21607" lon="6.05414">
        <ele>452.03125</ele>
        <time>2012-02-29T15:58:50Z</time>
      </trkpt>
      <trkpt lat="47.2161" lon="6.05405">
        <ele>451.804993</ele>
        <time>2012-02-29T15:58:55Z</time>
      </trkpt>
      <trkpt lat="47.2162" lon="6.05388">
        <ele>451.858765</ele>
        <time>2012-02-29T15:59:08Z</time>
      </trkpt>
      <trkpt lat="47.21624" lon="6.05381">
        <ele>451.950348</ele>
        <time>2012-02-29T15:59:15Z</time>
      </trkpt>
      <trkpt lat="47.21626" lon="6.05377">
        <ele>451.894592</ele>
        <time>2012-02-29T15:59:18Z</time>
      </trkpt>
      <trkpt lat="47.21641" lon="6.0535">
        <ele>451.559784</ele>
        <time>2012-02-29T15:59:36Z</time>
      </trkpt>
      <trkpt lat="47.21667" lon="6.05315">
        <ele>452.618256</ele>
        <time>2012-02-29T15:59:56Z</time>
      </trkpt>
      <trkpt lat="47.21691" lon="6.05313">
        <ele>453.908783</ele>
        <time>2012-02-29T16:00:15Z</time>
      </trkpt>
      <trkpt lat="47.21716" lon="6.05312">
        <ele>454.992889</ele>
        <time>2012-02-29T16:00:36Z</time>
      </trkpt>
      <trkpt lat="47.21734" lon="6.05309">
        <ele>454.355225</ele>
        <time>2012-02-29T16:00:53Z</time>
      </trkpt>
      <trkpt lat="47.21757" lon="6.05307">
        <ele>453.910675</ele>
        <time>2012-02-29T16:01:14Z</time>
      </trkpt>
      <trkpt lat="47.21774" lon="6.05309">
        <ele>453.148621</ele>
        <time>2012-02-29T16:01:32Z</time>
      </trkpt>
      <trkpt lat="47.21789" lon="6.05313">
        <ele>452.495117</ele>
        <time>2012-02-29T16:01:48Z</time>
      </trkpt>
      <trkpt lat="47.21792" lon="6.05312">
        <ele>452.313416</ele>
        <time>2012-02-29T16:01:51Z</time>
      </trkpt>
      <trkpt lat="47.21797" lon="6.0531">
        <ele>451.957031</ele>
        <time>2012-02-29T16:01:56Z</time>
      </trkpt>
      <trkpt lat="47.218" lon="6.0531">
        <ele>451.788544</ele>
        <time>2012-02-29T16:01:58Z</time>
      </trkpt>
      <trkpt lat="47.21805" lon="6.05308">
        <ele>451.325867</ele>
        <time>2012-02-29T16:02:03Z</time>
      </trkpt>
      <trkpt lat="47.21812" lon="6.05305">
        <ele>450.608459</ele>
        <time>2012-02-29T16:02:10Z</time>
      </trkpt>
      <trkpt lat="47.21818" lon="6.05298">
        <ele>450.027832</ele>
        <time>2012-02-29T16:02:17Z</time>
      </trkpt>
      <trkpt lat="47.2183" lon="6.05295">
        <ele>449.390228</ele>
        <time>2012-02-29T16:02:31Z</time>
      </trkpt>
      <trkpt lat="47.21837" lon="6.05293">
        <ele>449.070862</ele>
        <time>2012-02-29T16:02:39Z</time>
      </trkpt>
      <trkpt lat="47.21852" lon="6.05283">
        <ele>449.181732</ele>
        <time>2012-02-29T16:02:57Z</time>
      </trkpt>
      <trkpt lat="47.21855" lon="6.05275">
        <ele>449.772339</ele>
        <time>2012-02-29T16:03:09Z</time>
      </trkpt>
      <trkpt lat="47.21863" lon="6.05263">
        <ele>450.680206</ele>
        <time>2012-02-29T16:03:23Z</time>
      </trkpt>
      <trkpt lat="47.21878" lon="6.05257">
        <ele>451.356262</ele>
        <time>2012-02-29T16:03:37Z</time>
      </trkpt>
      <trkpt lat="47.21883" lon="6.05255">
        <ele>451.610107</ele>
        <time>2012-02-29T16:03:41Z</time>
      </trkpt>
      <trkpt lat="47.21897" lon="6.05246">
        <ele>453.008057</ele>
        <time>2012-02-29T16:03:55Z</time>
      </trkpt>
      <trkpt lat="47.21912" lon="6.05242">
        <ele>454.87265</ele>
        <time>2012-02-29T16:04:12Z</time>
      </trkpt>
      <trkpt lat="47.21922" lon="6.05242">
        <ele>455.867889</ele>
        <time>2012-02-29T16:04:27Z</time>
      </trkpt>
      <trkpt lat="47.21932" lon="6.05248">
        <ele>455.753723</ele>
        <time>2012-02-29T16:04:43Z</time>
      </trkpt>
      <trkpt lat="47.21936" lon="6.05248">
        <ele>456.110962</ele>
        <time>2012-02-29T16:04:57Z</time>
      </trkpt>
      <trkpt lat="47.21938" lon="6.05247">
        <ele>456.489044</ele>
        <time>2012-02-29T16:05:14Z</time>
      </trkpt>
      <trkpt lat="47.21941" lon="6.0524">
        <ele>457.945679</ele>
        <time>2012-02-29T16:05:29Z</time>
      </trkpt>
      <trkpt lat="47.21941" lon="6.05234">
        <ele>459.451324</ele>
        <time>2012-02-29T16:05:43Z</time>
      </trkpt>
      <trkpt lat="47.2194" lon="6.05232">
        <ele>459.793213</ele>
        <time>2012-02-29T16:05:56Z</time>
      </trkpt>
      <trkpt lat="47.2194" lon="6.05232">
        <ele>459.793213</ele>
        <time>2012-02-29T16:05:59Z</time>
      </trkpt>
      <trkpt lat="47.2194" lon="6.05228">
        <ele>460.957245</ele>
        <time>2012-02-29T16:06:13Z</time>
      </trkpt>
      <trkpt lat="47.2194" lon="6.05228">
        <ele>460.957245</ele>
        <time>2012-02-29T16:06:26Z</time>
      </trkpt>
      <trkpt lat="47.2194" lon="6.05224">
        <ele>462.157013</ele>
        <time>2012-02-29T16:06:39Z</time>
      </trkpt>
      <trkpt lat="47.2194" lon="6.05224">
        <ele>462.157013</ele>
        <time>2012-02-29T16:06:54Z</time>
      </trkpt>
      <trkpt lat="47.21939" lon="6.05219">
        <ele>463.113861</ele>
        <time>2012-02-29T16:06:55Z</time>
      </trkpt>
      <trkpt lat="47.21932" lon="6.05171">
        <ele>473.292938</ele>
        <time>2012-02-29T16:07:10Z</time>
      </trkpt>
      <trkpt lat="47.21929" lon="6.05161">
        <ele>473.950989</ele>
        <time>2012-02-29T16:07:27Z</time>
      </trkpt>
      <trkpt lat="47.21929" lon="6.05161">
        <ele>473.950989</ele>
        <time>2012-02-29T16:07:42Z</time>
      </trkpt>
      <trkpt lat="47.21929" lon="6.05161">
        <ele>473.950989</ele>
        <time>2012-02-29T16:07:56Z</time>
      </trkpt>
      <trkpt lat="47.21925" lon="6.05148">
        <ele>474.633209</ele>
        <time>2012-02-29T16:08:03Z</time>
      </trkpt>
      <trkpt lat="47.21918" lon="6.05132">
        <ele>475.393494</ele>
        <time>2012-02-29T16:08:10Z</time>
      </trkpt>
      <trkpt lat="47.21915" lon="6.05126">
        <ele>475.773895</ele>
        <time>2012-02-29T16:08:13Z</time>
      </trkpt>
      <trkpt lat="47.2191" lon="6.05102">
        <ele>478.474274</ele>
        <time>2012-02-29T16:08:29Z</time>
      </trkpt>
      <trkpt lat="47.21908" lon="6.05086">
        <ele>478.857483</ele>
        <time>2012-02-29T16:08:42Z</time>
      </trkpt>
      <trkpt lat="47.21909" lon="6.05081">
        <ele>479.073242</ele>
        <time>2012-02-29T16:08:45Z</time>
      </trkpt>
      <trkpt lat="47.21909" lon="6.05078">
        <ele>479.2034</ele>
        <time>2012-02-29T16:08:47Z</time>
      </trkpt>
      <trkpt lat="47.21911" lon="6.05063">
        <ele>479.879211</ele>
        <time>2012-02-29T16:09:00Z</time>
      </trkpt>
      <trkpt lat="47.21912" lon="6.05048">
        <ele>480.450653</ele>
        <time>2012-02-29T16:09:16Z</time>
      </trkpt>
      <trkpt lat="47.21915" lon="6.05038">
        <ele>480.640106</ele>
        <time>2012-02-29T16:09:25Z</time>
      </trkpt>
      <trkpt lat="47.21919" lon="6.0503">
        <ele>479.910797</ele>
        <time>2012-02-29T16:09:33Z</time>
      </trkpt>
      <trkpt lat="47.21923" lon="6.05017">
        <ele>478.544891</ele>
        <time>2012-02-29T16:09:46Z</time>
      </trkpt>
      <trkpt lat="47.21933" lon="6.05007">
        <ele>476.61319</ele>
        <time>2012-02-29T16:10:03Z</time>
      </trkpt>
      <trkpt lat="47.21942" lon="6.05009">
        <ele>475.724304</ele>
        <time>2012-02-29T16:10:21Z</time>
      </trkpt>
      <trkpt lat="47.21943" lon="6.0501">
        <ele>475.740662</ele>
        <time>2012-02-29T16:10:23Z</time>
      </trkpt>
      <trkpt lat="47.21949" lon="6.05015">
        <ele>475.647125</ele>
        <time>2012-02-29T16:10:28Z</time>
      </trkpt>
      <trkpt lat="47.21955" lon="6.05029">
        <ele>476.087433</ele>
        <time>2012-02-29T16:10:46Z</time>
      </trkpt>
      <trkpt lat="47.21964" lon="6.05047">
        <ele>476.056488</ele>
        <time>2012-02-29T16:10:58Z</time>
      </trkpt>
      <trkpt lat="47.21965" lon="6.05049">
        <ele>476.037506</ele>
        <time>2012-02-29T16:10:59Z</time>
      </trkpt>
      <trkpt lat="47.21965" lon="6.0505">
        <ele>475.97287</ele>
        <time>2012-02-29T16:11:00Z</time>
      </trkpt>
      <trkpt lat="47.2197" lon="6.0506">
        <ele>475.701569</ele>
        <time>2012-02-29T16:11:10Z</time>
      </trkpt>
      <trkpt lat="47.2197" lon="6.05062">
        <ele>475.737885</ele>
        <time>2012-02-29T16:11:11Z</time>
      </trkpt>
      <trkpt lat="47.21975" lon="6.05079">
        <ele>476.235382</ele>
        <time>2012-02-29T16:11:28Z</time>
      </trkpt>
      <trkpt lat="47.21976" lon="6.05084">
        <ele>476.50351</ele>
        <time>2012-02-29T16:11:35Z</time>
      </trkpt>
      <trkpt lat="47.21976" lon="6.05084">
        <ele>476.472015</ele>
        <time>2012-02-29T16:11:36Z</time>
      </trkpt>
      <trkpt lat="47.21976" lon="6.05085">
        <ele>476.488007</ele>
        <time>2012-02-29T16:11:37Z</time>
      </trkpt>
      <trkpt lat="47.21982" lon="6.05093">
        <ele>476.206421</ele>
        <time>2012-02-29T16:11:56Z</time>
      </trkpt>
      <trkpt lat="47.21983" lon="6.05095">
        <ele>476.277283</ele>
        <time>2012-02-29T16:12:15Z</time>
      </trkpt>
      <trkpt lat="47.21983" lon="6.05095">
        <ele>476.277283</ele>
        <time>2012-02-29T16:12:42Z</time>
      </trkpt>
      <trkpt lat="47.21983" lon="6.05095">
        <ele>476.312988</ele>
        <time>2012-02-29T16:13:03Z</time>
      </trkpt>
      <trkpt lat="47.21982" lon="6.05101">
        <ele>476.994476</ele>
        <time>2012-02-29T16:13:19Z</time>
      </trkpt>
      <trkpt lat="47.21981" lon="6.05106">
        <ele>477.722168</ele>
        <time>2012-02-29T16:13:37Z</time>
      </trkpt>
      <trkpt lat="47.21981" lon="6.05107">
        <ele>477.858765</ele>
        <time>2012-02-29T16:14:03Z</time>
      </trkpt>
      <trkpt lat="47.2198" lon="6.05108">
        <ele>478.116882</ele>
        <time>2012-02-29T16:14:16Z</time>
      </trkpt>
      <trkpt lat="47.21981" lon="6.05122">
        <ele>478.343506</ele>
        <time>2012-02-29T16:17:16Z</time>
      </trkpt>
      <trkpt lat="47.21981" lon="6.05123">
        <ele>478.341431</ele>
        <time>2012-02-29T16:17:17Z</time>
      </trkpt>
      <trkpt lat="47.21981" lon="6.05125">
        <ele>478.309265</ele>
        <time>2012-02-29T16:17:18Z</time>
      </trkpt>
      <trkpt lat="47.21983" lon="6.05126">
        <ele>478.216309</ele>
        <time>2012-02-29T16:17:20Z</time>
      </trkpt>
    </trkseg>
  </trk>
</gpx>